Wetterdaten: Samstag, 02.05.2026
Datum Zeit Temp. Aussen Temp. o. S. Temp +5cm Feuchte Auss Luftdruck Regen Sonnenschein Solar Windböen Empfang
02.05.2026 00:00 16,4 °C 14,4 °C 11,1 °C 52 % 1021,8 hPa 0,0 l/m² 0 min 0 W/m² 3,2 km/h (1 Bft) 100,00 %
02.05.2026 00:02 16,3 °C 14,4 °C 11,1 °C 53 % 1021,9 hPa 0,0 l/m² 0 min 0 W/m² 3,2 km/h (1 Bft) 100,00 %
02.05.2026 00:04 16,3 °C 14,4 °C 11,1 °C 53 % 1021,9 hPa 0,0 l/m² 0 min 0 W/m² 3,2 km/h (1 Bft) 100,00 %
02.05.2026 00:08 16,2 °C 14,4 °C 11,1 °C 53 % 1021,8 hPa 0,0 l/m² 0 min 0 W/m² 3,2 km/h (1 Bft) 100,00 %
02.05.2026 00:10 16,2 °C 14,4 °C 11,1 °C 54 % 1021,8 hPa 0,0 l/m² 0 min 0 W/m² 6,4 km/h (2 Bft) 100,00 %
02.05.2026 00:12 16,1 °C 14,4 °C 11,1 °C 54 % 1021,8 hPa 0,0 l/m² 0 min 0 W/m² 3,2 km/h (1 Bft) 97,87 %
02.05.2026 00:14 16,1 °C 14,4 °C 11,1 °C 54 % 1021,8 hPa 0,0 l/m² 0 min 0 W/m² 6,4 km/h (2 Bft) 100,00 %
02.05.2026 00:16 16,0 °C 14,4 °C 11,1 °C 54 % 1021,8 hPa 0,0 l/m² 0 min 0 W/m² 3,2 km/h (1 Bft) 96,00 %
02.05.2026 00:18 16,0 °C 14,4 °C 11,1 °C 54 % 1021,8 hPa 0,0 l/m² 0 min 0 W/m² 3,2 km/h (1 Bft) 97,83 %
02.05.2026 00:20 15,9 °C 14,4 °C 11,1 °C 54 % 1021,8 hPa 0,0 l/m² 0 min 0 W/m² 3,2 km/h (1 Bft) 97,87 %
02.05.2026 00:22 15,8 °C 14,4 °C 11,1 °C 54 % 1021,7 hPa 0,0 l/m² 0 min 0 W/m² 6,4 km/h (2 Bft) 95,74 %
02.05.2026 00:24 15,8 °C 14,4 °C 11,1 °C 54 % 1021,7 hPa 0,0 l/m² 0 min 0 W/m² 3,2 km/h (1 Bft) 95,74 %
02.05.2026 00:26 15,8 °C 14,4 °C 11,1 °C 55 % 1021,7 hPa 0,0 l/m² 0 min 0 W/m² 3,2 km/h (1 Bft) 93,62 %
02.05.2026 00:28 15,7 °C 14,4 °C 11,1 °C 55 % 1021,8 hPa 0,0 l/m² 0 min 0 W/m² 6,4 km/h (2 Bft) 96,00 %
02.05.2026 00:30 15,7 °C 14,4 °C 11,1 °C 55 % 1021,8 hPa 0,0 l/m² 0 min 0 W/m² 6,4 km/h (2 Bft) 95,74 %
02.05.2026 00:32 15,7 °C 14,4 °C 11,1 °C 55 % 1021,8 hPa 0,0 l/m² 0 min 0 W/m² 3,2 km/h (1 Bft) 94,74 %
02.05.2026 00:34 15,6 °C 14,4 °C 11,1 °C 55 % 1021,8 hPa 0,0 l/m² 0 min 0 W/m² 6,4 km/h (2 Bft) 95,74 %
02.05.2026 00:36 15,6 °C 14,4 °C 11,1 °C 55 % 1021,8 hPa 0,0 l/m² 0 min 0 W/m² 3,2 km/h (1 Bft) 95,65 %
02.05.2026 00:38 15,6 °C 13,9 °C 11,1 °C 56 % 1021,8 hPa 0,0 l/m² 0 min 0 W/m² 9,7 km/h (2 Bft) 97,87 %
02.05.2026 00:40 15,5 °C 14,4 °C 11,1 °C 56 % 1021,8 hPa 0,0 l/m² 0 min 0 W/m² 6,4 km/h (2 Bft) 95,74 %
02.05.2026 00:42 15,4 °C 14,4 °C 11,1 °C 56 % 1021,8 hPa 0,0 l/m² 0 min 0 W/m² 6,4 km/h (2 Bft) 95,74 %
02.05.2026 00:44 15,4 °C 13,9 °C 11,1 °C 56 % 1021,8 hPa 0,0 l/m² 0 min 0 W/m² 6,4 km/h (2 Bft) 95,74 %
02.05.2026 00:46 15,4 °C 13,9 °C 11,1 °C 56 % 1021,8 hPa 0,0 l/m² 0 min 0 W/m² 3,2 km/h (1 Bft) 93,62 %
02.05.2026 00:48 15,4 °C 14,4 °C 11,1 °C 56 % 1021,8 hPa 0,0 l/m² 0 min 0 W/m² 6,4 km/h (2 Bft) 97,87 %
02.05.2026 00:50 15,3 °C 14,4 °C 11,1 °C 56 % 1021,8 hPa 0,0 l/m² 0 min 0 W/m² 6,4 km/h (2 Bft) 97,87 %
02.05.2026 00:52 15,3 °C 14,4 °C 11,1 °C 57 % 1021,8 hPa 0,0 l/m² 0 min 0 W/m² 6,4 km/h (2 Bft) 97,87 %
02.05.2026 00:54 15,3 °C 13,9 °C 11,1 °C 57 % 1021,8 hPa 0,0 l/m² 0 min 0 W/m² 6,4 km/h (2 Bft) 97,87 %
02.05.2026 00:56 15,3 °C 13,9 °C 11,1 °C 57 % 1021,8 hPa 0,0 l/m² 0 min 0 W/m² 9,7 km/h (2 Bft) 97,83 %
02.05.2026 00:58 15,3 °C 13,9 °C 11,1 °C 57 % 1021,7 hPa 0,0 l/m² 0 min 0 W/m² 6,4 km/h (2 Bft) 97,78 %
02.05.2026 01:00 15,2 °C 13,9 °C 11,1 °C 57 % 1021,8 hPa 0,0 l/m² 0 min 0 W/m² 6,4 km/h (2 Bft) 96,00 %
02.05.2026 01:02 15,2 °C 13,9 °C 11,1 °C 57 % 1021,8 hPa 0,0 l/m² 0 min 0 W/m² 12,9 km/h (3 Bft) 95,74 %
02.05.2026 01:04 15,2 °C 13,9 °C 11,1 °C 57 % 1021,8 hPa 0,0 l/m² 0 min 0 W/m² 9,7 km/h (2 Bft) 98,00 %
02.05.2026 01:06 15,2 °C 13,9 °C 11,1 °C 57 % 1021,8 hPa 0,0 l/m² 0 min 0 W/m² 9,7 km/h (2 Bft) 97,87 %
02.05.2026 01:08 15,1 °C 13,9 °C 11,1 °C 57 % 1021,8 hPa 0,0 l/m² 0 min 0 W/m² 9,7 km/h (2 Bft) 97,83 %
02.05.2026 01:10 15,1 °C 13,9 °C 11,1 °C 57 % 1021,7 hPa 0,0 l/m² 0 min 0 W/m² 12,9 km/h (3 Bft) 98,00 %
02.05.2026 01:12 15,1 °C 13,9 °C 11,1 °C 57 % 1021,8 hPa 0,0 l/m² 0 min 0 W/m² 12,9 km/h (3 Bft) 97,37 %
02.05.2026 01:14 15,1 °C 13,9 °C 10,6 °C 57 % 1021,8 hPa 0,0 l/m² 0 min 0 W/m² 12,9 km/h (3 Bft) 98,00 %
02.05.2026 01:16 15,1 °C 13,9 °C 10,6 °C 57 % 1021,7 hPa 0,0 l/m² 0 min 0 W/m² 6,4 km/h (2 Bft) 97,87 %
02.05.2026 01:18 15,1 °C 13,9 °C 10,6 °C 57 % 1021,7 hPa 0,0 l/m² 0 min 0 W/m² 6,4 km/h (2 Bft) 97,87 %
02.05.2026 01:20 15,0 °C 13,9 °C 10,6 °C 57 % 1021,7 hPa 0,0 l/m² 0 min 0 W/m² 12,9 km/h (3 Bft) 97,87 %
02.05.2026 01:22 15,0 °C 13,9 °C 10,6 °C 57 % 1021,7 hPa 0,0 l/m² 0 min 0 W/m² 6,4 km/h (2 Bft) 100,00 %
02.05.2026 01:24 14,9 °C 13,9 °C 10,6 °C 57 % 1021,7 hPa 0,0 l/m² 0 min 0 W/m² 6,4 km/h (2 Bft) 100,00 %
02.05.2026 01:26 14,9 °C 13,9 °C 10,6 °C 58 % 1021,7 hPa 0,0 l/m² 0 min 0 W/m² 16,1 km/h (3 Bft) 98,11 %
02.05.2026 01:28 14,9 °C 13,9 °C 10,6 °C 58 % 1021,7 hPa 0,0 l/m² 0 min 0 W/m² 6,4 km/h (2 Bft) 97,62 %
02.05.2026 01:30 14,9 °C 13,9 °C 10,6 °C 58 % 1021,7 hPa 0,0 l/m² 0 min 0 W/m² 6,4 km/h (2 Bft) 100,00 %
02.05.2026 01:32 14,8 °C 13,9 °C 10,6 °C 58 % 1021,7 hPa 0,0 l/m² 0 min 0 W/m² 12,9 km/h (3 Bft) 97,87 %
02.05.2026 01:34 14,8 °C 13,3 °C 10,6 °C 58 % 1021,7 hPa 0,0 l/m² 0 min 0 W/m² 9,7 km/h (2 Bft) 100,00 %
02.05.2026 01:36 14,8 °C 13,3 °C 10,6 °C 58 % 1021,6 hPa 0,0 l/m² 0 min 0 W/m² 6,4 km/h (2 Bft) 97,87 %
02.05.2026 01:38 14,7 °C 13,3 °C 10,6 °C 58 % 1021,7 hPa 0,0 l/m² 0 min 0 W/m² 6,4 km/h (2 Bft) 97,87 %
02.05.2026 01:40 14,7 °C 13,3 °C 10,6 °C 58 % 1021,7 hPa 0,0 l/m² 0 min 0 W/m² 12,9 km/h (3 Bft) 97,96 %
02.05.2026 01:42 14,7 °C 13,3 °C 10,6 °C 58 % 1021,6 hPa 0,0 l/m² 0 min 0 W/m² 3,2 km/h (1 Bft) 98,00 %
02.05.2026 01:44 14,7 °C 13,3 °C 10,6 °C 59 % 1021,6 hPa 0,0 l/m² 0 min 0 W/m² 9,7 km/h (2 Bft) 98,00 %
02.05.2026 01:46 14,6 °C 13,3 °C 10,6 °C 59 % 1021,6 hPa 0,0 l/m² 0 min 0 W/m² 9,7 km/h (2 Bft) 95,74 %
02.05.2026 01:48 14,6 °C 13,3 °C 10,6 °C 59 % 1021,6 hPa 0,0 l/m² 0 min 0 W/m² 12,9 km/h (3 Bft) 97,87 %
02.05.2026 01:50 14,6 °C 13,3 °C 10,6 °C 59 % 1021,6 hPa 0,0 l/m² 0 min 0 W/m² 9,7 km/h (2 Bft) 97,87 %
02.05.2026 01:52 14,5 °C 13,3 °C 10,0 °C 60 % 1021,5 hPa 0,0 l/m² 0 min 0 W/m² 6,4 km/h (2 Bft) 97,87 %
02.05.2026 01:54 14,4 °C 13,3 °C 10,0 °C 60 % 1021,5 hPa 0,0 l/m² 0 min 0 W/m² 6,4 km/h (2 Bft) 94,29 %
02.05.2026 01:56 14,4 °C 13,3 °C 10,0 °C 60 % 1021,5 hPa 0,0 l/m² 0 min 0 W/m² 6,4 km/h (2 Bft) 98,18 %
02.05.2026 01:58 14,4 °C 13,3 °C 10,0 °C 60 % 1021,5 hPa 0,0 l/m² 0 min 0 W/m² 6,4 km/h (2 Bft) 97,87 %
02.05.2026 02:00 14,3 °C 13,3 °C 10,0 °C 60 % 1021,5 hPa 0,0 l/m² 0 min 0 W/m² 12,9 km/h (3 Bft) 96,00 %
02.05.2026 02:02 14,3 °C 13,3 °C 10,0 °C 60 % 1021,5 hPa 0,0 l/m² 0 min 0 W/m² 16,1 km/h (3 Bft) 95,74 %
02.05.2026 02:04 14,3 °C 13,3 °C 10,0 °C 60 % 1021,4 hPa 0,0 l/m² 0 min 0 W/m² 9,7 km/h (2 Bft) 95,74 %
02.05.2026 02:06 14,3 °C 13,3 °C 10,0 °C 60 % 1021,4 hPa 0,0 l/m² 0 min 0 W/m² 6,4 km/h (2 Bft) 96,00 %
02.05.2026 02:08 14,3 °C 13,3 °C 10,0 °C 60 % 1021,4 hPa 0,0 l/m² 0 min 0 W/m² 9,7 km/h (2 Bft) 94,74 %
02.05.2026 02:10 14,3 °C 13,3 °C 10,0 °C 60 % 1021,4 hPa 0,0 l/m² 0 min 0 W/m² 12,9 km/h (3 Bft) 96,23 %
02.05.2026 02:16 14,3 °C 13,3 °C 10,0 °C 60 % 1021,3 hPa 0,0 l/m² 0 min 0 W/m² 12,9 km/h (3 Bft) 97,56 %
02.05.2026 02:18 14,3 °C 13,3 °C 10,0 °C 61 % 1021,3 hPa 0,0 l/m² 0 min 0 W/m² 12,9 km/h (3 Bft) 100,00 %
02.05.2026 02:20 14,3 °C 13,3 °C 10,0 °C 61 % 1021,3 hPa 0,0 l/m² 0 min 0 W/m² 9,7 km/h (2 Bft) 95,74 %
02.05.2026 02:22 14,3 °C 12,8 °C 10,0 °C 61 % 1021,3 hPa 0,0 l/m² 0 min 0 W/m² 9,7 km/h (2 Bft) 97,87 %
02.05.2026 02:24 14,2 °C 12,8 °C 10,0 °C 61 % 1021,2 hPa 0,0 l/m² 0 min 0 W/m² 12,9 km/h (3 Bft) 96,00 %
02.05.2026 02:26 14,2 °C 12,8 °C 10,0 °C 61 % 1021,2 hPa 0,0 l/m² 0 min 0 W/m² 12,9 km/h (3 Bft) 98,00 %
02.05.2026 02:28 14,2 °C 12,8 °C 10,0 °C 61 % 1021,2 hPa 0,0 l/m² 0 min 0 W/m² 12,9 km/h (3 Bft) 97,83 %
02.05.2026 02:30 14,1 °C 12,8 °C 10,0 °C 61 % 1021,2 hPa 0,0 l/m² 0 min 0 W/m² 6,4 km/h (2 Bft) 100,00 %
02.05.2026 02:32 14,1 °C 12,8 °C 10,0 °C 62 % 1021,2 hPa 0,0 l/m² 0 min 0 W/m² 12,9 km/h (3 Bft) 100,00 %
02.05.2026 02:34 14,1 °C 12,8 °C 10,0 °C 62 % 1021,2 hPa 0,0 l/m² 0 min 0 W/m² 0,0 km/h (0 Bft) 100,00 %
02.05.2026 02:36 14,1 °C 12,8 °C 10,0 °C 62 % 1021,1 hPa 0,0 l/m² 0 min 0 W/m² 0,0 km/h (0 Bft) 97,87 %
02.05.2026 02:38 14,0 °C 12,8 °C 10,0 °C 62 % 1021,1 hPa 0,0 l/m² 0 min 0 W/m² 6,4 km/h (2 Bft) 100,00 %
02.05.2026 02:40 14,0 °C 12,8 °C 9,4 °C 62 % 1021,1 hPa 0,0 l/m² 0 min 0 W/m² 12,9 km/h (3 Bft) 100,00 %
02.05.2026 02:42 13,9 °C 12,8 °C 9,4 °C 62 % 1021,1 hPa 0,0 l/m² 0 min 0 W/m² 6,4 km/h (2 Bft) 97,87 %
02.05.2026 02:44 13,9 °C 12,8 °C 9,4 °C 62 % 1021,1 hPa 0,0 l/m² 0 min 0 W/m² 6,4 km/h (2 Bft) 100,00 %
02.05.2026 02:46 13,9 °C 12,8 °C 9,4 °C 62 % 1021,1 hPa 0,0 l/m² 0 min 0 W/m² 9,7 km/h (2 Bft) 98,00 %
02.05.2026 02:48 13,8 °C 12,8 °C 9,4 °C 62 % 1021,1 hPa 0,0 l/m² 0 min 0 W/m² 12,9 km/h (3 Bft) 100,00 %
02.05.2026 02:50 13,8 °C 12,8 °C 9,4 °C 62 % 1021,0 hPa 0,0 l/m² 0 min 0 W/m² 9,7 km/h (2 Bft) 100,00 %
02.05.2026 02:52 13,8 °C 12,8 °C 9,4 °C 63 % 1021,0 hPa 0,0 l/m² 0 min 0 W/m² 3,2 km/h (1 Bft) 100,00 %
02.05.2026 02:54 13,7 °C 12,2 °C 9,4 °C 63 % 1021,0 hPa 0,0 l/m² 0 min 0 W/m² 6,4 km/h (2 Bft) 97,87 %
02.05.2026 02:56 13,7 °C 12,2 °C 9,4 °C 63 % 1021,0 hPa 0,0 l/m² 0 min 0 W/m² 9,7 km/h (2 Bft) 100,00 %
02.05.2026 02:58 13,7 °C 12,2 °C 9,4 °C 63 % 1020,9 hPa 0,0 l/m² 0 min 0 W/m² 16,1 km/h (3 Bft) 100,00 %
02.05.2026 03:00 13,7 °C 12,2 °C 9,4 °C 63 % 1020,9 hPa 0,0 l/m² 0 min 0 W/m² 9,7 km/h (2 Bft) 100,00 %
02.05.2026 03:02 13,6 °C 12,2 °C 9,4 °C 63 % 1020,8 hPa 0,0 l/m² 0 min 0 W/m² 12,9 km/h (3 Bft) 97,83 %
02.05.2026 03:04 13,6 °C 12,2 °C 9,4 °C 63 % 1020,8 hPa 0,0 l/m² 0 min 0 W/m² 6,4 km/h (2 Bft) 100,00 %
02.05.2026 03:06 13,6 °C 12,2 °C 9,4 °C 64 % 1020,8 hPa 0,0 l/m² 0 min 0 W/m² 9,7 km/h (2 Bft) 100,00 %
02.05.2026 03:08 13,5 °C 12,2 °C 9,4 °C 64 % 1020,8 hPa 0,0 l/m² 0 min 0 W/m² 6,4 km/h (2 Bft) 100,00 %
02.05.2026 03:10 13,5 °C 12,2 °C 9,4 °C 64 % 1020,8 hPa 0,0 l/m² 0 min 0 W/m² 6,4 km/h (2 Bft) 100,00 %
02.05.2026 03:12 13,4 °C 12,2 °C 9,4 °C 64 % 1020,8 hPa 0,0 l/m² 0 min 0 W/m² 6,4 km/h (2 Bft) 100,00 %
02.05.2026 03:14 13,4 °C 12,2 °C 9,4 °C 64 % 1020,8 hPa 0,0 l/m² 0 min 0 W/m² 9,7 km/h (2 Bft) 100,00 %
02.05.2026 03:16 13,4 °C 12,2 °C 9,4 °C 64 % 1020,8 hPa 0,0 l/m² 0 min 0 W/m² 9,7 km/h (2 Bft) 100,00 %
02.05.2026 03:18 13,3 °C 12,2 °C 9,4 °C 65 % 1020,8 hPa 0,0 l/m² 0 min 0 W/m² 16,1 km/h (3 Bft) 100,00 %
02.05.2026 03:20 13,3 °C 12,2 °C 8,9 °C 65 % 1020,7 hPa 0,0 l/m² 0 min 0 W/m² 12,9 km/h (3 Bft) 100,00 %
02.05.2026 03:22 13,3 °C 12,2 °C 8,9 °C 65 % 1020,7 hPa 0,0 l/m² 0 min 0 W/m² 6,4 km/h (2 Bft) 97,87 %
02.05.2026 03:24 13,3 °C 12,2 °C 8,9 °C 65 % 1020,6 hPa 0,0 l/m² 0 min 0 W/m² 9,7 km/h (2 Bft) 97,87 %
02.05.2026 03:26 13,2 °C 12,2 °C 8,9 °C 65 % 1020,7 hPa 0,0 l/m² 0 min 0 W/m² 3,2 km/h (1 Bft) 98,00 %
02.05.2026 03:28 13,2 °C 12,2 °C 8,9 °C 65 % 1020,6 hPa 0,0 l/m² 0 min 0 W/m² 6,4 km/h (2 Bft) 100,00 %
02.05.2026 03:30 13,2 °C 12,2 °C 8,9 °C 65 % 1020,6 hPa 0,0 l/m² 0 min 0 W/m² 6,4 km/h (2 Bft) 97,87 %
02.05.2026 03:32 13,2 °C 12,2 °C 8,9 °C 65 % 1020,6 hPa 0,0 l/m² 0 min 0 W/m² 6,4 km/h (2 Bft) 97,96 %
02.05.2026 03:34 13,1 °C 11,7 °C 8,9 °C 65 % 1020,6 hPa 0,0 l/m² 0 min 0 W/m² 12,9 km/h (3 Bft) 97,87 %
02.05.2026 03:36 13,1 °C 11,7 °C 8,9 °C 65 % 1020,6 hPa 0,0 l/m² 0 min 0 W/m² 9,7 km/h (2 Bft) 97,56 %
02.05.2026 03:38 13,1 °C 11,7 °C 8,9 °C 65 % 1020,6 hPa 0,0 l/m² 0 min 0 W/m² 12,9 km/h (3 Bft) 93,62 %
02.05.2026 03:40 13,1 °C 11,7 °C 8,9 °C 66 % 1020,6 hPa 0,0 l/m² 0 min 0 W/m² 12,9 km/h (3 Bft) 96,00 %
02.05.2026 03:42 13,0 °C 11,7 °C 8,9 °C 66 % 1020,6 hPa 0,0 l/m² 0 min 0 W/m² 6,4 km/h (2 Bft) 97,87 %
02.05.2026 03:44 13,0 °C 11,7 °C 8,9 °C 66 % 1020,6 hPa 0,0 l/m² 0 min 0 W/m² 6,4 km/h (2 Bft) 95,74 %
02.05.2026 03:46 12,9 °C 11,7 °C 8,9 °C 66 % 1020,6 hPa 0,0 l/m² 0 min 0 W/m² 6,4 km/h (2 Bft) 93,62 %
02.05.2026 03:48 12,9 °C 11,7 °C 8,9 °C 66 % 1020,6 hPa 0,0 l/m² 0 min 0 W/m² 12,9 km/h (3 Bft) 95,74 %
02.05.2026 03:50 12,9 °C 11,7 °C 8,9 °C 66 % 1020,6 hPa 0,0 l/m² 0 min 0 W/m² 12,9 km/h (3 Bft) 95,92 %
02.05.2026 03:52 12,9 °C 11,7 °C 8,9 °C 66 % 1020,6 hPa 0,0 l/m² 0 min 0 W/m² 16,1 km/h (3 Bft) 97,22 %
02.05.2026 03:54 12,9 °C 11,7 °C 8,9 °C 66 % 1020,6 hPa 0,0 l/m² 0 min 0 W/m² 9,7 km/h (2 Bft) 91,84 %
02.05.2026 03:56 12,8 °C 11,7 °C 8,9 °C 66 % 1020,6 hPa 0,0 l/m² 0 min 0 W/m² 16,1 km/h (3 Bft) 93,62 %
02.05.2026 03:58 12,8 °C 11,7 °C 8,9 °C 66 % 1020,6 hPa 0,0 l/m² 0 min 0 W/m² 9,7 km/h (2 Bft) 97,87 %
02.05.2026 04:00 12,8 °C 11,7 °C 8,9 °C 66 % 1020,6 hPa 0,0 l/m² 0 min 0 W/m² 12,9 km/h (3 Bft) 95,74 %
02.05.2026 04:02 12,8 °C 11,7 °C 8,9 °C 66 % 1020,5 hPa 0,0 l/m² 0 min 0 W/m² 12,9 km/h (3 Bft) 94,00 %
02.05.2026 04:04 12,8 °C 11,7 °C 8,9 °C 66 % 1020,5 hPa 0,0 l/m² 0 min 0 W/m² 16,1 km/h (3 Bft) 89,36 %
02.05.2026 04:06 12,7 °C 11,7 °C 8,9 °C 67 % 1020,5 hPa 0,0 l/m² 0 min 0 W/m² 16,1 km/h (3 Bft) 94,23 %
02.05.2026 04:08 12,7 °C 11,7 °C 8,9 °C 67 % 1020,5 hPa 0,0 l/m² 0 min 0 W/m² 12,9 km/h (3 Bft) 93,62 %
02.05.2026 04:10 12,7 °C 11,7 °C 8,9 °C 67 % 1020,5 hPa 0,0 l/m² 0 min 0 W/m² 12,9 km/h (3 Bft) 91,67 %
02.05.2026 04:12 12,7 °C 11,7 °C 8,3 °C 67 % 1020,5 hPa 0,0 l/m² 0 min 0 W/m² 9,7 km/h (2 Bft) 91,38 %
02.05.2026 04:14 12,6 °C 11,7 °C 8,3 °C 67 % 1020,5 hPa 0,0 l/m² 0 min 0 W/m² 12,9 km/h (3 Bft) 94,29 %
02.05.2026 04:16 12,6 °C 11,7 °C 8,3 °C 67 % 1020,5 hPa 0,0 l/m² 0 min 0 W/m² 12,9 km/h (3 Bft) 93,62 %
02.05.2026 04:18 12,6 °C 11,7 °C 8,3 °C 67 % 1020,6 hPa 0,0 l/m² 0 min 0 W/m² 12,9 km/h (3 Bft) 95,74 %
02.05.2026 04:20 12,6 °C 11,7 °C 8,3 °C 67 % 1020,6 hPa 0,0 l/m² 0 min 0 W/m² 12,9 km/h (3 Bft) 94,34 %
02.05.2026 04:22 12,6 °C 11,7 °C 8,3 °C 67 % 1020,5 hPa 0,0 l/m² 0 min 0 W/m² 6,4 km/h (2 Bft) 97,87 %
02.05.2026 04:24 12,5 °C 11,1 °C 8,3 °C 67 % 1020,5 hPa 0,0 l/m² 0 min 0 W/m² 12,9 km/h (3 Bft) 97,87 %
02.05.2026 04:26 12,5 °C 11,1 °C 8,3 °C 67 % 1020,5 hPa 0,0 l/m² 0 min 0 W/m² 6,4 km/h (2 Bft) 95,74 %
02.05.2026 04:28 12,5 °C 11,1 °C 8,3 °C 67 % 1020,5 hPa 0,0 l/m² 0 min 0 W/m² 9,7 km/h (2 Bft) 97,96 %
02.05.2026 04:30 12,4 °C 11,1 °C 8,3 °C 68 % 1020,5 hPa 0,0 l/m² 0 min 0 W/m² 6,4 km/h (2 Bft) 97,87 %
02.05.2026 04:32 12,4 °C 11,1 °C 8,3 °C 68 % 1020,4 hPa 0,0 l/m² 0 min 0 W/m² 6,4 km/h (2 Bft) 95,74 %
02.05.2026 04:34 12,4 °C 11,1 °C 8,3 °C 68 % 1020,4 hPa 0,0 l/m² 0 min 0 W/m² 12,9 km/h (3 Bft) 97,87 %
02.05.2026 04:36 12,4 °C 11,1 °C 8,3 °C 68 % 1020,4 hPa 0,0 l/m² 0 min 0 W/m² 12,9 km/h (3 Bft) 95,74 %
02.05.2026 04:38 12,3 °C 11,1 °C 8,3 °C 68 % 1020,4 hPa 0,0 l/m² 0 min 0 W/m² 9,7 km/h (2 Bft) 97,87 %
02.05.2026 04:40 12,3 °C 11,1 °C 8,3 °C 68 % 1020,4 hPa 0,0 l/m² 0 min 0 W/m² 6,4 km/h (2 Bft) 97,87 %
02.05.2026 04:42 12,3 °C 11,1 °C 8,3 °C 68 % 1020,4 hPa 0,0 l/m² 0 min 0 W/m² 9,7 km/h (2 Bft) 97,83 %
02.05.2026 04:44 12,3 °C 11,1 °C 8,3 °C 68 % 1020,4 hPa 0,0 l/m² 0 min 0 W/m² 9,7 km/h (2 Bft) 100,00 %
02.05.2026 04:46 12,3 °C 11,1 °C 8,3 °C 69 % 1020,3 hPa 0,0 l/m² 0 min 0 W/m² 3,2 km/h (1 Bft) 97,87 %
02.05.2026 04:48 12,3 °C 11,1 °C 8,3 °C 68 % 1020,4 hPa 0,0 l/m² 0 min 0 W/m² 12,9 km/h (3 Bft) 100,00 %
02.05.2026 04:50 12,3 °C 11,1 °C 8,3 °C 69 % 1020,4 hPa 0,0 l/m² 0 min 0 W/m² 9,7 km/h (2 Bft) 100,00 %
02.05.2026 04:52 12,2 °C 11,1 °C 8,3 °C 69 % 1020,4 hPa 0,0 l/m² 0 min 0 W/m² 6,4 km/h (2 Bft) 100,00 %
02.05.2026 04:54 12,2 °C 11,1 °C 8,3 °C 69 % 1020,4 hPa 0,0 l/m² 0 min 0 W/m² 12,9 km/h (3 Bft) 100,00 %
02.05.2026 04:56 12,2 °C 11,1 °C 8,3 °C 69 % 1020,3 hPa 0,0 l/m² 0 min 0 W/m² 9,7 km/h (2 Bft) 100,00 %
02.05.2026 04:58 12,2 °C 11,1 °C 7,8 °C 69 % 1020,3 hPa 0,0 l/m² 0 min 0 W/m² 12,9 km/h (3 Bft) 100,00 %
02.05.2026 05:00 12,1 °C 11,1 °C 7,8 °C 69 % 1020,3 hPa 0,0 l/m² 0 min 0 W/m² 12,9 km/h (3 Bft) 100,00 %
02.05.2026 05:02 12,1 °C 11,1 °C 8,3 °C 69 % 1020,3 hPa 0,0 l/m² 0 min 0 W/m² 12,9 km/h (3 Bft) 98,08 %
02.05.2026 05:04 12,1 °C 11,1 °C 7,8 °C 69 % 1020,2 hPa 0,0 l/m² 0 min 0 W/m² 9,7 km/h (2 Bft) 100,00 %
02.05.2026 05:06 12,1 °C 11,1 °C 8,3 °C 69 % 1020,1 hPa 0,0 l/m² 0 min 0 W/m² 16,1 km/h (3 Bft) 100,00 %
02.05.2026 05:08 12,1 °C 11,1 °C 7,8 °C 70 % 1020,2 hPa 0,0 l/m² 0 min 0 W/m² 16,1 km/h (3 Bft) 97,87 %
02.05.2026 05:10 12,1 °C 11,1 °C 7,8 °C 70 % 1020,1 hPa 0,0 l/m² 0 min 0 W/m² 12,9 km/h (3 Bft) 98,11 %
02.05.2026 05:12 12,0 °C 11,1 °C 7,8 °C 70 % 1020,1 hPa 0,0 l/m² 0 min 0 W/m² 16,1 km/h (3 Bft) 100,00 %
02.05.2026 05:14 12,0 °C 11,1 °C 7,8 °C 70 % 1020,1 hPa 0,0 l/m² 0 min 0 W/m² 12,9 km/h (3 Bft) 100,00 %
02.05.2026 05:16 11,9 °C 11,1 °C 7,8 °C 70 % 1020,1 hPa 0,0 l/m² 0 min 0 W/m² 12,9 km/h (3 Bft) 97,87 %
02.05.2026 05:18 11,9 °C 11,1 °C 7,8 °C 70 % 1020,1 hPa 0,0 l/m² 0 min 0 W/m² 16,1 km/h (3 Bft) 93,62 %
02.05.2026 05:20 11,9 °C 11,1 °C 7,8 °C 70 % 1020,1 hPa 0,0 l/m² 0 min 0 W/m² 12,9 km/h (3 Bft) 95,74 %
02.05.2026 05:22 11,9 °C 11,1 °C 7,8 °C 70 % 1020,1 hPa 0,0 l/m² 0 min 0 W/m² 12,9 km/h (3 Bft) 100,00 %
02.05.2026 05:24 11,9 °C 10,6 °C 7,8 °C 70 % 1020,1 hPa 0,0 l/m² 0 min 0 W/m² 12,9 km/h (3 Bft) 97,37 %
02.05.2026 05:26 11,8 °C 10,6 °C 7,8 °C 70 % 1020,0 hPa 0,0 l/m² 0 min 0 W/m² 12,9 km/h (3 Bft) 100,00 %
02.05.2026 05:28 11,8 °C 10,6 °C 7,8 °C 71 % 1020,0 hPa 0,0 l/m² 0 min 0 W/m² 12,9 km/h (3 Bft) 100,00 %
02.05.2026 05:30 11,8 °C 10,6 °C 7,8 °C 71 % 1020,0 hPa 0,0 l/m² 0 min 0 W/m² 12,9 km/h (3 Bft) 97,83 %
02.05.2026 05:32 11,8 °C 10,6 °C 7,8 °C 71 % 1020,0 hPa 0,0 l/m² 0 min 0 W/m² 12,9 km/h (3 Bft) 97,37 %
02.05.2026 05:34 11,7 °C 10,6 °C 7,8 °C 71 % 1019,9 hPa 0,0 l/m² 0 min 0 W/m² 12,9 km/h (3 Bft) 98,25 %
02.05.2026 05:36 11,7 °C 10,6 °C 7,8 °C 71 % 1019,9 hPa 0,0 l/m² 0 min 0 W/m² 16,1 km/h (3 Bft) 97,62 %
02.05.2026 05:38 11,7 °C 10,6 °C 7,8 °C 71 % 1019,9 hPa 0,0 l/m² 0 min 0 W/m² 16,1 km/h (3 Bft) 98,00 %
02.05.2026 05:40 11,7 °C 10,6 °C 7,8 °C 71 % 1019,9 hPa 0,0 l/m² 0 min 0 W/m² 12,9 km/h (3 Bft) 97,87 %
02.05.2026 05:42 11,6 °C 10,6 °C 7,2 °C 71 % 1019,9 hPa 0,0 l/m² 0 min 0 W/m² 9,7 km/h (2 Bft) 98,00 %
02.05.2026 05:44 11,6 °C 10,6 °C 7,8 °C 71 % 1019,8 hPa 0,0 l/m² 0 min 0 W/m² 9,7 km/h (2 Bft) 97,83 %
02.05.2026 05:46 11,6 °C 10,6 °C 7,8 °C 72 % 1019,8 hPa 0,0 l/m² 0 min 0 W/m² 6,4 km/h (2 Bft) 97,87 %
02.05.2026 05:48 11,6 °C 10,6 °C 7,8 °C 72 % 1019,8 hPa 0,0 l/m² 0 min 0 W/m² 19,3 km/h (3 Bft) 97,87 %
02.05.2026 05:50 11,6 °C 10,6 °C 7,8 °C 72 % 1019,9 hPa 0,0 l/m² 0 min 0 W/m² 12,9 km/h (3 Bft) 97,87 %
02.05.2026 05:52 11,5 °C 10,6 °C 7,8 °C 72 % 1019,9 hPa 0,0 l/m² 0 min 0 W/m² 12,9 km/h (3 Bft) 97,87 %
02.05.2026 05:54 11,5 °C 10,6 °C 7,2 °C 72 % 1020,0 hPa 0,0 l/m² 0 min 0 W/m² 12,9 km/h (3 Bft) 95,74 %
02.05.2026 05:56 11,4 °C 10,6 °C 7,2 °C 72 % 1020,0 hPa 0,0 l/m² 0 min 0 W/m² 12,9 km/h (3 Bft) 97,87 %
02.05.2026 05:58 11,4 °C 10,6 °C 7,2 °C 72 % 1019,9 hPa 0,0 l/m² 0 min 0 W/m² 16,1 km/h (3 Bft) 95,74 %
02.05.2026 06:00 11,4 °C 10,6 °C 7,2 °C 72 % 1019,9 hPa 0,0 l/m² 0 min 0 W/m² 9,7 km/h (2 Bft) 100,00 %
02.05.2026 06:02 11,4 °C 10,6 °C 7,2 °C 72 % 1019,8 hPa 0,0 l/m² 0 min 0 W/m² 12,9 km/h (3 Bft) 100,00 %
02.05.2026 06:04 11,4 °C 10,6 °C 7,2 °C 72 % 1019,9 hPa 0,0 l/m² 0 min 0 W/m² 16,1 km/h (3 Bft) 100,00 %
02.05.2026 06:06 11,4 °C 10,6 °C 7,2 °C 72 % 1020,0 hPa 0,0 l/m² 0 min 0 W/m² 12,9 km/h (3 Bft) 97,92 %
02.05.2026 06:08 11,4 °C 10,6 °C 7,2 °C 72 % 1019,9 hPa 0,0 l/m² 0 min 3 W/m² 12,9 km/h (3 Bft) 100,00 %
02.05.2026 06:10 11,4 °C 10,6 °C 7,2 °C 72 % 1019,9 hPa 0,0 l/m² 0 min 5 W/m² 12,9 km/h (3 Bft) 100,00 %
02.05.2026 06:12 11,4 °C 10,6 °C 7,2 °C 72 % 1019,9 hPa 0,0 l/m² 0 min 5 W/m² 12,9 km/h (3 Bft) 97,78 %
02.05.2026 06:14 11,4 °C 10,6 °C 7,8 °C 72 % 1019,8 hPa 0,0 l/m² 0 min 5 W/m² 12,9 km/h (3 Bft) 100,00 %
02.05.2026 06:16 11,4 °C 10,6 °C 7,8 °C 72 % 1019,9 hPa 0,0 l/m² 0 min 7 W/m² 16,1 km/h (3 Bft) 97,87 %
02.05.2026 06:18 11,3 °C 10,6 °C 7,8 °C 73 % 1019,8 hPa 0,0 l/m² 0 min 7 W/m² 12,9 km/h (3 Bft) 97,96 %
02.05.2026 06:20 11,4 °C 10,6 °C 7,8 °C 73 % 1019,8 hPa 0,0 l/m² 0 min 7 W/m² 16,1 km/h (3 Bft) 100,00 %
02.05.2026 06:22 11,4 °C 10,6 °C 7,8 °C 73 % 1019,8 hPa 0,0 l/m² 0 min 9 W/m² 12,9 km/h (3 Bft) 96,00 %
02.05.2026 06:24 11,4 °C 10,6 °C 7,8 °C 73 % 1019,8 hPa 0,0 l/m² 0 min 9 W/m² 9,7 km/h (2 Bft) 97,87 %
02.05.2026 06:26 11,4 °C 10,6 °C 7,8 °C 73 % 1019,8 hPa 0,0 l/m² 0 min 10 W/m² 12,9 km/h (3 Bft) 95,74 %
02.05.2026 06:28 11,4 °C 10,6 °C 7,8 °C 73 % 1019,8 hPa 0,0 l/m² 0 min 11 W/m² 6,4 km/h (2 Bft) 97,87 %
02.05.2026 06:30 11,4 °C 10,6 °C 7,8 °C 73 % 1019,8 hPa 0,0 l/m² 0 min 11 W/m² 16,1 km/h (3 Bft) 97,87 %
02.05.2026 06:32 11,4 °C 10,6 °C 7,8 °C 73 % 1019,8 hPa 0,0 l/m² 0 min 12 W/m² 12,9 km/h (3 Bft) 98,00 %
02.05.2026 06:34 11,4 °C 10,6 °C 7,8 °C 73 % 1019,8 hPa 0,0 l/m² 0 min 12 W/m² 16,1 km/h (3 Bft) 97,83 %
02.05.2026 06:36 11,4 °C 10,6 °C 7,8 °C 73 % 1019,8 hPa 0,0 l/m² 0 min 14 W/m² 12,9 km/h (3 Bft) 96,00 %
02.05.2026 06:38 11,4 °C 10,6 °C 7,8 °C 73 % 1019,8 hPa 0,0 l/m² 0 min 14 W/m² 6,4 km/h (2 Bft) 95,74 %
02.05.2026 06:40 11,4 °C 10,6 °C 7,8 °C 73 % 1019,8 hPa 0,0 l/m² 0 min 15 W/m² 6,4 km/h (2 Bft) 94,74 %
02.05.2026 06:42 11,4 °C 10,6 °C 7,8 °C 73 % 1019,8 hPa 0,0 l/m² 0 min 16 W/m² 6,4 km/h (2 Bft) 95,74 %
02.05.2026 06:44 11,4 °C 10,6 °C 7,8 °C 73 % 1019,8 hPa 0,0 l/m² 0 min 16 W/m² 12,9 km/h (3 Bft) 96,00 %
02.05.2026 06:46 11,4 °C 10,6 °C 7,8 °C 73 % 1019,8 hPa 0,0 l/m² 0 min 18 W/m² 12,9 km/h (3 Bft) 95,74 %
02.05.2026 06:48 11,5 °C 10,6 °C 7,8 °C 73 % 1019,7 hPa 0,0 l/m² 0 min 18 W/m² 9,7 km/h (2 Bft) 93,62 %
02.05.2026 06:50 11,5 °C 11,1 °C 7,8 °C 73 % 1019,7 hPa 0,0 l/m² 0 min 19 W/m² 6,4 km/h (2 Bft) 93,88 %
02.05.2026 06:52 11,5 °C 11,1 °C 7,8 °C 73 % 1019,7 hPa 0,0 l/m² 0 min 19 W/m² 12,9 km/h (3 Bft) 95,74 %
02.05.2026 06:54 11,5 °C 11,1 °C 7,8 °C 73 % 1019,7 hPa 0,0 l/m² 0 min 19 W/m² 6,4 km/h (2 Bft) 95,74 %
02.05.2026 06:56 11,5 °C 11,1 °C 7,8 °C 73 % 1019,7 hPa 0,0 l/m² 0 min 20 W/m² 6,4 km/h (2 Bft) 93,62 %
02.05.2026 06:58 11,5 °C 11,1 °C 7,8 °C 73 % 1019,7 hPa 0,0 l/m² 0 min 21 W/m² 6,4 km/h (2 Bft) 96,00 %
02.05.2026 07:00 11,5 °C 11,1 °C 7,8 °C 73 % 1019,7 hPa 0,0 l/m² 0 min 21 W/m² 6,4 km/h (2 Bft) 94,74 %
02.05.2026 07:02 11,5 °C 11,1 °C 7,8 °C 73 % 1019,7 hPa 0,0 l/m² 0 min 22 W/m² 6,4 km/h (2 Bft) 95,74 %
02.05.2026 07:04 11,5 °C 11,1 °C 7,8 °C 73 % 1019,8 hPa 0,0 l/m² 0 min 23 W/m² 12,9 km/h (3 Bft) 96,00 %
02.05.2026 07:06 11,5 °C 11,1 °C 7,8 °C 73 % 1019,8 hPa 0,0 l/m² 0 min 23 W/m² 6,4 km/h (2 Bft) 91,84 %
02.05.2026 07:08 11,6 °C 11,1 °C 7,8 °C 73 % 1019,9 hPa 0,0 l/m² 0 min 24 W/m² 12,9 km/h (3 Bft) 98,00 %
02.05.2026 07:10 11,6 °C 11,1 °C 7,8 °C 73 % 1019,8 hPa 0,0 l/m² 0 min 25 W/m² 12,9 km/h (3 Bft) 97,14 %
02.05.2026 07:12 11,6 °C 11,1 °C 7,8 °C 73 % 1019,9 hPa 0,0 l/m² 0 min 26 W/m² 12,9 km/h (3 Bft) 97,87 %
02.05.2026 07:14 11,6 °C 11,1 °C 7,8 °C 73 % 1020,0 hPa 0,0 l/m² 0 min 26 W/m² 6,4 km/h (2 Bft) 97,87 %
02.05.2026 07:16 11,6 °C 11,7 °C 7,8 °C 73 % 1019,9 hPa 0,0 l/m² 0 min 27 W/m² 12,9 km/h (3 Bft) 97,87 %
02.05.2026 07:18 11,7 °C 11,7 °C 7,8 °C 73 % 1019,9 hPa 0,0 l/m² 0 min 28 W/m² 12,9 km/h (3 Bft) 97,87 %
02.05.2026 07:20 11,7 °C 11,7 °C 8,3 °C 73 % 1020,0 hPa 0,0 l/m² 0 min 29 W/m² 12,9 km/h (3 Bft) 97,87 %
02.05.2026 07:22 11,8 °C 11,7 °C 8,3 °C 73 % 1020,0 hPa 0,0 l/m² 0 min 30 W/m² 12,9 km/h (3 Bft) 96,00 %
02.05.2026 07:24 11,8 °C 11,7 °C 8,3 °C 73 % 1020,0 hPa 0,0 l/m² 0 min 31 W/m² 12,9 km/h (3 Bft) 91,49 %
02.05.2026 07:26 11,9 °C 11,7 °C 8,3 °C 73 % 1020,0 hPa 0,0 l/m² 0 min 32 W/m² 16,1 km/h (3 Bft) 95,65 %
02.05.2026 07:28 11,9 °C 11,7 °C 8,3 °C 72 % 1020,0 hPa 0,0 l/m² 0 min 32 W/m² 9,7 km/h (2 Bft) 97,87 %
02.05.2026 07:30 12,0 °C 12,2 °C 8,3 °C 72 % 1020,0 hPa 0,0 l/m² 0 min 33 W/m² 16,1 km/h (3 Bft) 97,87 %
02.05.2026 07:32 12,1 °C 12,2 °C 8,3 °C 72 % 1019,9 hPa 0,0 l/m² 0 min 34 W/m² 12,9 km/h (3 Bft) 97,87 %
02.05.2026 07:34 12,2 °C 12,2 °C 8,3 °C 72 % 1020,0 hPa 0,0 l/m² 0 min 35 W/m² 16,1 km/h (3 Bft) 91,49 %
02.05.2026 07:36 12,2 °C 12,2 °C 8,9 °C 72 % 1020,0 hPa 0,0 l/m² 0 min 35 W/m² 16,1 km/h (3 Bft) 95,74 %
02.05.2026 07:38 12,3 °C 12,2 °C 8,9 °C 72 % 1020,0 hPa 0,0 l/m² 0 min 36 W/m² 19,3 km/h (3 Bft) 95,74 %
02.05.2026 07:40 12,3 °C 12,2 °C 8,9 °C 72 % 1019,9 hPa 0,0 l/m² 0 min 37 W/m² 19,3 km/h (3 Bft) 97,87 %
02.05.2026 07:42 12,4 °C 12,2 °C 8,9 °C 72 % 1019,9 hPa 0,0 l/m² 0 min 38 W/m² 22,5 km/h (4 Bft) 97,83 %
02.05.2026 07:44 12,5 °C 12,2 °C 8,9 °C 71 % 1019,9 hPa 0,0 l/m² 0 min 39 W/m² 19,3 km/h (3 Bft) 96,00 %
02.05.2026 07:46 12,6 °C 12,2 °C 8,9 °C 71 % 1019,9 hPa 0,0 l/m² 0 min 40 W/m² 22,5 km/h (4 Bft) 96,00 %
02.05.2026 07:48 12,6 °C 12,8 °C 8,9 °C 71 % 1019,8 hPa 0,0 l/m² 0 min 41 W/m² 12,9 km/h (3 Bft) 97,87 %
02.05.2026 07:50 12,7 °C 12,8 °C 8,9 °C 71 % 1019,7 hPa 0,0 l/m² 0 min 44 W/m² 12,9 km/h (3 Bft) 97,87 %
02.05.2026 07:52 12,7 °C 12,8 °C 8,9 °C 71 % 1019,7 hPa 0,0 l/m² 0 min 48 W/m² 12,9 km/h (3 Bft) 95,74 %
02.05.2026 07:54 12,8 °C 12,8 °C 8,9 °C 71 % 1019,7 hPa 0,0 l/m² 0 min 54 W/m² 12,9 km/h (3 Bft) 100,00 %
02.05.2026 07:56 12,9 °C 12,8 °C 8,9 °C 71 % 1019,7 hPa 0,0 l/m² 0 min 63 W/m² 12,9 km/h (3 Bft) 100,00 %
02.05.2026 07:58 12,9 °C 13,3 °C 9,4 °C 71 % 1019,7 hPa 0,0 l/m² 0 min 75 W/m² 16,1 km/h (3 Bft) 100,00 %
02.05.2026 08:00 13,1 °C 13,3 °C 9,4 °C 71 % 1019,7 hPa 0,0 l/m² 0 min 92 W/m² 12,9 km/h (3 Bft) 100,00 %
02.05.2026 08:02 13,1 °C 13,9 °C 9,4 °C 70 % 1019,9 hPa 0,0 l/m² 0 min 114 W/m² 19,3 km/h (3 Bft) 100,00 %
02.05.2026 08:04 13,2 °C 13,9 °C 10,0 °C 70 % 1019,8 hPa 0,0 l/m² 0 min 127 W/m² 22,5 km/h (4 Bft) 97,87 %
02.05.2026 08:06 13,3 °C 13,9 °C 10,0 °C 70 % 1019,9 hPa 0,0 l/m² 0 min 125 W/m² 16,1 km/h (3 Bft) 100,00 %
02.05.2026 08:08 13,4 °C 13,9 °C 10,0 °C 69 % 1019,9 hPa 0,0 l/m² 0 min 120 W/m² 19,3 km/h (3 Bft) 100,00 %
02.05.2026 08:10 13,6 °C 14,4 °C 10,0 °C 69 % 1019,8 hPa 0,0 l/m² 0 min 107 W/m² 25,7 km/h (4 Bft) 100,00 %
02.05.2026 08:12 13,7 °C 14,4 °C 10,6 °C 69 % 1019,8 hPa 0,0 l/m² 0 min 99 W/m² 22,5 km/h (4 Bft) 100,00 %
02.05.2026 08:14 13,8 °C 14,4 °C 10,6 °C 68 % 1019,9 hPa 0,0 l/m² 0 min 129 W/m² 16,1 km/h (3 Bft) 100,00 %
02.05.2026 08:16 14,0 °C 14,4 °C 10,6 °C 68 % 1019,9 hPa 0,0 l/m² 0 min 111 W/m² 12,9 km/h (3 Bft) 100,00 %
02.05.2026 08:18 14,1 °C 14,4 °C 10,6 °C 68 % 1019,8 hPa 0,0 l/m² 0 min 128 W/m² 12,9 km/h (3 Bft) 97,87 %
02.05.2026 08:20 14,3 °C 14,4 °C 10,6 °C 68 % 1019,8 hPa 0,0 l/m² 0 min 126 W/m² 16,1 km/h (3 Bft) 97,62 %
02.05.2026 08:22 14,3 °C 14,4 °C 10,6 °C 67 % 1019,8 hPa 0,0 l/m² 0 min 154 W/m² 16,1 km/h (3 Bft) 100,00 %
02.05.2026 08:24 14,3 °C 15,0 °C 10,6 °C 67 % 1019,8 hPa 0,0 l/m² 2 min 280 W/m² 22,5 km/h (4 Bft) 100,00 %
02.05.2026 08:26 14,4 °C 15,0 °C 11,1 °C 67 % 1019,8 hPa 0,0 l/m² 2 min 331 W/m² 16,1 km/h (3 Bft) 100,00 %
02.05.2026 08:28 14,6 °C 15,0 °C 11,1 °C 67 % 1019,8 hPa 0,0 l/m² 2 min 262 W/m² 12,9 km/h (3 Bft) 100,00 %
02.05.2026 08:30 14,6 °C 15,0 °C 11,1 °C 66 % 1019,8 hPa 0,0 l/m² 0 min 118 W/m² 19,3 km/h (3 Bft) 100,00 %
02.05.2026 08:32 14,7 °C 15,0 °C 11,1 °C 66 % 1019,9 hPa 0,0 l/m² 0 min 108 W/m² 19,3 km/h (3 Bft) 100,00 %
02.05.2026 08:34 14,8 °C 15,0 °C 11,1 °C 66 % 1019,9 hPa 0,0 l/m² 0 min 89 W/m² 16,1 km/h (3 Bft) 97,87 %
02.05.2026 08:36 14,9 °C 15,0 °C 11,1 °C 66 % 1019,9 hPa 0,0 l/m² 0 min 80 W/m² 12,9 km/h (3 Bft) 100,00 %
02.05.2026 08:38 14,9 °C 15,0 °C 11,1 °C 65 % 1019,9 hPa 0,0 l/m² 0 min 84 W/m² 12,9 km/h (3 Bft) 100,00 %
02.05.2026 08:40 15,0 °C 15,0 °C 11,1 °C 65 % 1019,9 hPa 0,0 l/m² 0 min 92 W/m² 16,1 km/h (3 Bft) 100,00 %
02.05.2026 08:42 15,0 °C 15,0 °C 10,6 °C 65 % 1019,8 hPa 0,0 l/m² 0 min 91 W/m² 22,5 km/h (4 Bft) 100,00 %
02.05.2026 08:44 15,1 °C 15,6 °C 10,6 °C 65 % 1019,8 hPa 0,0 l/m² 2 min 214 W/m² 16,1 km/h (3 Bft) 100,00 %
02.05.2026 08:46 15,1 °C 17,2 °C 11,1 °C 65 % 1019,8 hPa 0,0 l/m² 2 min 386 W/m² 19,3 km/h (3 Bft) 100,00 %
02.05.2026 08:48 15,2 °C 18,9 °C 11,1 °C 65 % 1019,8 hPa 0,0 l/m² 2 min 406 W/m² 16,1 km/h (3 Bft) 94,74 %
02.05.2026 08:50 15,3 °C 20,0 °C 11,1 °C 65 % 1019,8 hPa 0,0 l/m² 2 min 438 W/m² 16,1 km/h (3 Bft) 100,00 %
02.05.2026 08:52 15,4 °C 20,6 °C 11,7 °C 65 % 1019,9 hPa 0,0 l/m² 2 min 460 W/m² 16,1 km/h (3 Bft) 100,00 %
02.05.2026 08:54 15,6 °C 21,1 °C 11,7 °C 65 % 1019,8 hPa 0,0 l/m² 2 min 492 W/m² 16,1 km/h (3 Bft) 100,00 %
02.05.2026 08:56 15,7 °C 21,7 °C 12,2 °C 64 % 1019,8 hPa 0,0 l/m² 2 min 519 W/m² 19,3 km/h (3 Bft) 100,00 %
02.05.2026 08:58 15,9 °C 21,7 °C 12,8 °C 64 % 1019,8 hPa 0,0 l/m² 2 min 529 W/m² 19,3 km/h (3 Bft) 93,62 %
02.05.2026 09:00 16,1 °C 21,7 °C 13,3 °C 63 % 1019,9 hPa 0,0 l/m² 2 min 478 W/m² 16,1 km/h (3 Bft) 100,00 %
02.05.2026 09:02 16,3 °C 20,6 °C 13,3 °C 63 % 1019,8 hPa 0,0 l/m² 2 min 379 W/m² 19,3 km/h (3 Bft) 100,00 %
02.05.2026 09:04 16,4 °C 18,9 °C 13,3 °C 62 % 1019,8 hPa 0,0 l/m² 2 min 244 W/m² 12,9 km/h (3 Bft) 97,83 %
02.05.2026 09:06 16,6 °C 17,8 °C 12,8 °C 61 % 1019,9 hPa 0,0 l/m² 0 min 149 W/m² 22,5 km/h (4 Bft) 95,74 %
02.05.2026 09:08 16,6 °C 17,2 °C 12,8 °C 61 % 1019,9 hPa 0,0 l/m² 0 min 149 W/m² 16,1 km/h (3 Bft) 100,00 %
02.05.2026 09:10 16,7 °C 16,7 °C 12,2 °C 61 % 1019,9 hPa 0,0 l/m² 0 min 154 W/m² 19,3 km/h (3 Bft) 100,00 %
02.05.2026 09:12 16,7 °C 16,1 °C 12,2 °C 61 % 1019,8 hPa 0,0 l/m² 0 min 172 W/m² 16,1 km/h (3 Bft) 100,00 %
02.05.2026 09:14 16,7 °C 16,1 °C 12,2 °C 61 % 1019,8 hPa 0,0 l/m² 0 min 163 W/m² 19,3 km/h (3 Bft) 98,00 %
02.05.2026 09:16 16,7 °C 16,7 °C 12,2 °C 61 % 1019,8 hPa 0,0 l/m² 0 min 203 W/m² 9,7 km/h (2 Bft) 97,87 %
02.05.2026 09:18 16,7 °C 17,2 °C 12,8 °C 62 % 1019,8 hPa 0,0 l/m² 2 min 268 W/m² 12,9 km/h (3 Bft) 98,00 %
02.05.2026 09:20 16,7 °C 17,8 °C 12,8 °C 62 % 1019,8 hPa 0,0 l/m² 0 min 230 W/m² 6,4 km/h (2 Bft) 93,48 %
02.05.2026 09:22 16,7 °C 17,8 °C 12,8 °C 62 % 1019,8 hPa 0,0 l/m² 0 min 221 W/m² 12,9 km/h (3 Bft) 93,62 %
02.05.2026 09:24 16,7 °C 17,8 °C 13,3 °C 62 % 1019,9 hPa 0,0 l/m² 0 min 221 W/m² 12,9 km/h (3 Bft) 91,49 %
02.05.2026 09:26 16,7 °C 17,8 °C 13,3 °C 62 % 1019,9 hPa 0,0 l/m² 0 min 226 W/m² 12,9 km/h (3 Bft) 94,00 %
02.05.2026 09:28 16,7 °C 18,3 °C 13,3 °C 62 % 1019,8 hPa 0,0 l/m² 2 min 246 W/m² 9,7 km/h (2 Bft) 93,62 %
02.05.2026 09:30 16,8 °C 17,8 °C 13,3 °C 62 % 1019,9 hPa 0,0 l/m² 0 min 194 W/m² 12,9 km/h (3 Bft) 91,43 %
02.05.2026 09:32 16,8 °C 17,8 °C 13,3 °C 62 % 1019,8 hPa 0,0 l/m² 0 min 201 W/m² 16,1 km/h (3 Bft) 94,34 %
02.05.2026 09:34 16,8 °C 18,3 °C 13,3 °C 63 % 1019,9 hPa 0,0 l/m² 2 min 273 W/m² 12,9 km/h (3 Bft) 93,62 %
02.05.2026 09:36 16,9 °C 18,3 °C 13,9 °C 63 % 1019,8 hPa 0,0 l/m² 2 min 316 W/m² 16,1 km/h (3 Bft) 91,49 %
02.05.2026 09:38 16,9 °C 18,9 °C 13,9 °C 62 % 1019,8 hPa 0,0 l/m² 2 min 316 W/m² 12,9 km/h (3 Bft) 93,48 %
02.05.2026 09:40 17,0 °C 18,9 °C 13,9 °C 62 % 1019,8 hPa 0,0 l/m² 2 min 301 W/m² 12,9 km/h (3 Bft) 93,62 %
02.05.2026 09:42 17,1 °C 18,9 °C 14,4 °C 62 % 1019,8 hPa 0,0 l/m² 2 min 347 W/m² 16,1 km/h (3 Bft) 91,49 %
02.05.2026 09:44 17,1 °C 20,0 °C 15,0 °C 62 % 1019,8 hPa 0,0 l/m² 2 min 396 W/m² 16,1 km/h (3 Bft) 93,62 %
02.05.2026 09:46 17,2 °C 20,0 °C 15,0 °C 62 % 1019,7 hPa 0,0 l/m² 2 min 470 W/m² 12,9 km/h (3 Bft) 91,49 %
02.05.2026 09:48 17,3 °C 20,6 °C 15,0 °C 62 % 1019,7 hPa 0,0 l/m² 2 min 407 W/m² 12,9 km/h (3 Bft) 93,62 %
02.05.2026 09:50 17,4 °C 20,6 °C 14,4 °C 62 % 1019,7 hPa 0,0 l/m² 2 min 386 W/m² 16,1 km/h (3 Bft) 93,62 %
02.05.2026 09:52 17,5 °C 21,1 °C 14,4 °C 62 % 1019,7 hPa 0,0 l/m² 2 min 469 W/m² 12,9 km/h (3 Bft) 95,74 %
02.05.2026 09:54 17,6 °C 21,7 °C 14,4 °C 62 % 1019,7 hPa 0,0 l/m² 2 min 494 W/m² 16,1 km/h (3 Bft) 94,29 %
02.05.2026 09:56 17,7 °C 22,2 °C 14,4 °C 62 % 1019,7 hPa 0,0 l/m² 2 min 423 W/m² 16,1 km/h (3 Bft) 96,72 %
02.05.2026 09:58 17,8 °C 21,7 °C 14,4 °C 62 % 1019,6 hPa 0,0 l/m² 2 min 309 W/m² 12,9 km/h (3 Bft) 93,62 %
02.05.2026 10:00 17,9 °C 21,1 °C 14,4 °C 62 % 1019,7 hPa 0,0 l/m² 2 min 295 W/m² 6,4 km/h (2 Bft) 97,87 %
02.05.2026 10:02 18,1 °C 20,6 °C 14,4 °C 61 % 1019,7 hPa 0,0 l/m² 0 min 277 W/m² 9,7 km/h (2 Bft) 95,74 %
02.05.2026 10:04 18,1 °C 20,0 °C 13,9 °C 61 % 1019,7 hPa 0,0 l/m² 0 min 250 W/m² 12,9 km/h (3 Bft) 97,37 %
02.05.2026 10:06 18,2 °C 19,4 °C 13,9 °C 61 % 1019,7 hPa 0,0 l/m² 0 min 282 W/m² 12,9 km/h (3 Bft) 98,00 %
02.05.2026 10:08 18,2 °C 19,4 °C 14,4 °C 61 % 1019,6 hPa 0,0 l/m² 2 min 324 W/m² 6,4 km/h (2 Bft) 94,23 %
02.05.2026 10:10 18,2 °C 19,4 °C 14,4 °C 61 % 1019,7 hPa 0,0 l/m² 2 min 328 W/m² 6,4 km/h (2 Bft) 97,44 %
02.05.2026 10:12 18,3 °C 19,4 °C 14,4 °C 61 % 1019,7 hPa 0,0 l/m² 0 min 278 W/m² 6,4 km/h (2 Bft) 97,83 %
02.05.2026 10:14 18,3 °C 19,4 °C 14,4 °C 61 % 1019,7 hPa 0,0 l/m² 0 min 256 W/m² 3,2 km/h (1 Bft) 98,00 %
02.05.2026 10:16 18,3 °C 19,4 °C 14,4 °C 61 % 1019,7 hPa 0,0 l/m² 0 min 258 W/m² 6,4 km/h (2 Bft) 93,62 %
02.05.2026 10:18 18,4 °C 19,4 °C 14,4 °C 61 % 1019,6 hPa 0,0 l/m² 0 min 266 W/m² 3,2 km/h (1 Bft) 97,87 %
02.05.2026 10:20 18,4 °C 19,4 °C 14,4 °C 61 % 1019,6 hPa 0,0 l/m² 0 min 285 W/m² 6,4 km/h (2 Bft) 97,87 %
02.05.2026 10:22 18,5 °C 19,4 °C 15,0 °C 61 % 1019,6 hPa 0,0 l/m² 2 min 325 W/m² 6,4 km/h (2 Bft) 95,74 %
02.05.2026 10:24 18,5 °C 20,0 °C 15,0 °C 60 % 1019,7 hPa 0,0 l/m² 2 min 397 W/m² 6,4 km/h (2 Bft) 97,87 %
02.05.2026 10:26 18,6 °C 20,0 °C 15,0 °C 61 % 1019,7 hPa 0,0 l/m² 2 min 415 W/m² 6,4 km/h (2 Bft) 98,08 %
02.05.2026 10:28 18,6 °C 20,6 °C 15,6 °C 61 % 1019,7 hPa 0,0 l/m² 2 min 398 W/m² 0,0 km/h (0 Bft) 94,74 %
02.05.2026 10:30 18,7 °C 20,6 °C 15,6 °C 61 % 1019,8 hPa 0,0 l/m² 2 min 387 W/m² 12,9 km/h (3 Bft) 98,00 %
02.05.2026 10:32 18,8 °C 20,6 °C 15,6 °C 60 % 1019,9 hPa 0,0 l/m² 2 min 362 W/m² 16,1 km/h (3 Bft) 100,00 %
02.05.2026 10:34 18,8 °C 20,0 °C 15,6 °C 60 % 1019,9 hPa 0,0 l/m² 2 min 335 W/m² 12,9 km/h (3 Bft) 100,00 %
02.05.2026 10:36 18,8 °C 20,0 °C 15,6 °C 60 % 1019,9 hPa 0,0 l/m² 2 min 341 W/m² 16,1 km/h (3 Bft) 100,00 %
02.05.2026 10:38 18,9 °C 20,0 °C 15,6 °C 60 % 1019,9 hPa 0,0 l/m² 2 min 327 W/m² 9,7 km/h (2 Bft) 100,00 %
02.05.2026 10:40 19,0 °C 20,0 °C 15,6 °C 61 % 1019,9 hPa 0,0 l/m² 2 min 326 W/m² 12,9 km/h (3 Bft) 100,00 %
02.05.2026 10:42 19,1 °C 20,0 °C 15,6 °C 60 % 1019,9 hPa 0,0 l/m² 2 min 353 W/m² 6,4 km/h (2 Bft) 97,87 %
02.05.2026 10:44 19,1 °C 20,6 °C 15,6 °C 61 % 1019,9 hPa 0,0 l/m² 2 min 362 W/m² 12,9 km/h (3 Bft) 100,00 %
02.05.2026 10:46 19,2 °C 20,6 °C 16,1 °C 61 % 1019,9 hPa 0,0 l/m² 2 min 334 W/m² 6,4 km/h (2 Bft) 100,00 %
02.05.2026 10:48 19,3 °C 20,6 °C 16,1 °C 60 % 1019,8 hPa 0,0 l/m² 2 min 374 W/m² 16,1 km/h (3 Bft) 100,00 %
02.05.2026 10:50 19,3 °C 20,6 °C 16,1 °C 60 % 1019,9 hPa 0,0 l/m² 2 min 377 W/m² 12,9 km/h (3 Bft) 100,00 %
02.05.2026 10:52 19,4 °C 20,6 °C 16,1 °C 60 % 1019,8 hPa 0,0 l/m² 2 min 329 W/m² 6,4 km/h (2 Bft) 100,00 %
02.05.2026 10:54 19,4 °C 21,1 °C 16,7 °C 60 % 1019,8 hPa 0,0 l/m² 2 min 353 W/m² 6,4 km/h (2 Bft) 100,00 %
02.05.2026 10:56 19,6 °C 22,2 °C 16,7 °C 60 % 1019,8 hPa 0,0 l/m² 2 min 484 W/m² 12,9 km/h (3 Bft) 100,00 %
02.05.2026 10:58 19,6 °C 23,3 °C 16,7 °C 60 % 1019,8 hPa 0,0 l/m² 2 min 678 W/m² 9,7 km/h (2 Bft) 100,00 %
02.05.2026 11:00 19,8 °C 23,3 °C 16,7 °C 60 % 1019,7 hPa 0,0 l/m² 2 min 619 W/m² 12,9 km/h (3 Bft) 100,00 %
02.05.2026 11:02 19,8 °C 23,3 °C 16,7 °C 59 % 1019,7 hPa 0,0 l/m² 2 min 589 W/m² 9,7 km/h (2 Bft) 97,01 %
02.05.2026 11:04 19,9 °C 22,8 °C 16,7 °C 60 % 1019,7 hPa 0,0 l/m² 2 min 562 W/m² 12,9 km/h (3 Bft) 100,00 %
02.05.2026 11:06 20,1 °C 22,8 °C 16,7 °C 60 % 1019,6 hPa 0,0 l/m² 2 min 522 W/m² 12,9 km/h (3 Bft) 100,00 %
02.05.2026 11:08 20,2 °C 22,2 °C 16,1 °C 59 % 1019,6 hPa 0,0 l/m² 2 min 503 W/m² 19,3 km/h (3 Bft) 98,00 %
02.05.2026 11:10 20,2 °C 22,8 °C 16,1 °C 59 % 1019,6 hPa 0,0 l/m² 2 min 559 W/m² 6,4 km/h (2 Bft) 100,00 %
02.05.2026 11:12 20,3 °C 23,3 °C 16,7 °C 60 % 1019,5 hPa 0,0 l/m² 2 min 589 W/m² 12,9 km/h (3 Bft) 100,00 %
02.05.2026 11:14 20,4 °C 23,9 °C 16,7 °C 59 % 1019,5 hPa 0,0 l/m² 2 min 628 W/m² 6,4 km/h (2 Bft) 100,00 %
02.05.2026 11:16 20,5 °C 25,0 °C 16,7 °C 59 % 1019,5 hPa 0,0 l/m² 2 min 674 W/m² 9,7 km/h (2 Bft) 100,00 %
02.05.2026 11:18 20,6 °C 25,6 °C 16,7 °C 59 % 1019,5 hPa 0,0 l/m² 2 min 710 W/m² 16,1 km/h (3 Bft) 98,00 %
02.05.2026 11:20 20,7 °C 26,1 °C 17,2 °C 59 % 1019,4 hPa 0,0 l/m² 2 min 717 W/m² 9,7 km/h (2 Bft) 100,00 %
02.05.2026 11:22 20,9 °C 26,1 °C 17,2 °C 59 % 1019,5 hPa 0,0 l/m² 2 min 745 W/m² 9,7 km/h (2 Bft) 100,00 %
02.05.2026 11:24 21,0 °C 25,6 °C 17,2 °C 58 % 1019,5 hPa 0,0 l/m² 2 min 720 W/m² 12,9 km/h (3 Bft) 97,87 %
02.05.2026 11:26 21,1 °C 25,0 °C 17,2 °C 59 % 1019,5 hPa 0,0 l/m² 2 min 670 W/m² 12,9 km/h (3 Bft) 97,87 %
02.05.2026 11:28 21,2 °C 24,4 °C 17,8 °C 58 % 1019,5 hPa 0,0 l/m² 2 min 692 W/m² 12,9 km/h (3 Bft) 97,56 %
02.05.2026 11:30 21,3 °C 23,9 °C 17,8 °C 58 % 1019,6 hPa 0,0 l/m² 2 min 628 W/m² 9,7 km/h (2 Bft) 97,87 %
02.05.2026 11:32 21,4 °C 23,9 °C 17,2 °C 58 % 1019,5 hPa 0,0 l/m² 2 min 592 W/m² 6,4 km/h (2 Bft) 95,65 %
02.05.2026 11:34 21,6 °C 23,9 °C 17,2 °C 58 % 1019,5 hPa 0,0 l/m² 2 min 569 W/m² 9,7 km/h (2 Bft) 97,87 %
02.05.2026 11:36 21,6 °C 23,3 °C 17,8 °C 58 % 1019,4 hPa 0,0 l/m² 2 min 599 W/m² 9,7 km/h (2 Bft) 97,87 %
02.05.2026 11:38 21,7 °C 23,3 °C 17,8 °C 58 % 1019,4 hPa 0,0 l/m² 2 min 660 W/m² 12,9 km/h (3 Bft) 98,00 %
02.05.2026 11:40 21,8 °C 23,3 °C 17,8 °C 58 % 1019,4 hPa 0,0 l/m² 2 min 761 W/m² 12,9 km/h (3 Bft) 97,87 %
02.05.2026 11:42 21,8 °C 23,3 °C 17,8 °C 58 % 1019,3 hPa 0,0 l/m² 2 min 771 W/m² 19,3 km/h (3 Bft) 97,87 %
02.05.2026 11:44 21,9 °C 22,8 °C 17,8 °C 58 % 1019,3 hPa 0,0 l/m² 2 min 775 W/m² 16,1 km/h (3 Bft) 95,74 %
02.05.2026 11:46 22,1 °C 23,3 °C 17,8 °C 58 % 1019,3 hPa 0,0 l/m² 2 min 780 W/m² 12,9 km/h (3 Bft) 95,74 %
02.05.2026 11:48 22,1 °C 23,9 °C 17,8 °C 58 % 1019,2 hPa 0,0 l/m² 2 min 796 W/m² 9,7 km/h (2 Bft) 95,65 %
02.05.2026 11:50 22,2 °C 23,9 °C 17,8 °C 58 % 1019,2 hPa 0,0 l/m² 2 min 791 W/m² 12,9 km/h (3 Bft) 95,74 %
02.05.2026 11:52 22,3 °C 25,0 °C 18,3 °C 58 % 1019,2 hPa 0,0 l/m² 2 min 793 W/m² 16,1 km/h (3 Bft) 93,62 %
02.05.2026 11:54 22,3 °C 26,1 °C 18,3 °C 58 % 1019,2 hPa 0,0 l/m² 2 min 772 W/m² 12,9 km/h (3 Bft) 95,74 %
02.05.2026 11:56 22,4 °C 27,8 °C 18,3 °C 57 % 1019,2 hPa 0,0 l/m² 2 min 771 W/m² 6,4 km/h (2 Bft) 95,74 %
02.05.2026 11:58 22,6 °C 28,9 °C 18,3 °C 57 % 1019,1 hPa 0,0 l/m² 2 min 788 W/m² 3,2 km/h (1 Bft) 92,00 %
02.05.2026 12:00 22,7 °C 28,9 °C 18,9 °C 58 % 1019,1 hPa 0,0 l/m² 2 min 798 W/m² 12,9 km/h (3 Bft) 100,00 %
02.05.2026 12:02 22,7 °C 30,0 °C 20,0 °C 57 % 1019,1 hPa 0,0 l/m² 2 min 805 W/m² 12,9 km/h (3 Bft) 95,74 %
02.05.2026 12:04 22,8 °C 29,4 °C 20,6 °C 57 % 1019,1 hPa 0,0 l/m² 2 min 762 W/m² 9,7 km/h (2 Bft) 97,96 %
02.05.2026 12:06 23,0 °C 29,4 °C 21,7 °C 57 % 1019,1 hPa 0,0 l/m² 2 min 770 W/m² 12,9 km/h (3 Bft) 97,96 %
02.05.2026 12:08 23,1 °C 29,4 °C 22,8 °C 57 % 1019,0 hPa 0,0 l/m² 2 min 821 W/m² 6,4 km/h (2 Bft) 97,62 %
02.05.2026 12:10 23,2 °C 29,4 °C 22,8 °C 57 % 1019,0 hPa 0,0 l/m² 2 min 800 W/m² 12,9 km/h (3 Bft) 95,74 %
02.05.2026 12:12 23,2 °C 30,0 °C 22,2 °C 57 % 1019,0 hPa 0,0 l/m² 2 min 784 W/m² 16,1 km/h (3 Bft) 97,87 %
02.05.2026 12:14 23,3 °C 30,0 °C 22,2 °C 57 % 1019,0 hPa 0,0 l/m² 2 min 813 W/m² 9,7 km/h (2 Bft) 94,34 %
02.05.2026 12:16 23,4 °C 30,6 °C 22,2 °C 57 % 1019,0 hPa 0,0 l/m² 2 min 797 W/m² 3,2 km/h (1 Bft) 97,87 %
02.05.2026 12:18 23,6 °C 30,6 °C 23,3 °C 57 % 1019,0 hPa 0,0 l/m² 2 min 753 W/m² 12,9 km/h (3 Bft) 95,74 %
02.05.2026 12:20 23,7 °C 30,6 °C 23,9 °C 57 % 1018,9 hPa 0,0 l/m² 2 min 723 W/m² 12,9 km/h (3 Bft) 97,96 %
02.05.2026 12:22 23,8 °C 29,4 °C 24,4 °C 56 % 1019,0 hPa 0,0 l/m² 2 min 754 W/m² 16,1 km/h (3 Bft) 97,87 %
02.05.2026 12:24 23,8 °C 29,4 °C 25,0 °C 57 % 1018,9 hPa 0,0 l/m² 2 min 743 W/m² 16,1 km/h (3 Bft) 97,37 %
02.05.2026 12:26 23,9 °C 30,0 °C 25,6 °C 57 % 1018,9 hPa 0,0 l/m² 2 min 757 W/m² 12,9 km/h (3 Bft) 97,87 %
02.05.2026 12:28 24,0 °C 31,1 °C 26,7 °C 57 % 1018,9 hPa 0,0 l/m² 2 min 801 W/m² 9,7 km/h (2 Bft) 95,74 %
02.05.2026 12:30 24,1 °C 30,6 °C 26,7 °C 56 % 1018,9 hPa 0,0 l/m² 2 min 804 W/m² 22,5 km/h (4 Bft) 96,00 %
02.05.2026 12:32 24,2 °C 30,6 °C 26,7 °C 56 % 1018,9 hPa 0,0 l/m² 2 min 792 W/m² 19,3 km/h (3 Bft) 100,00 %
02.05.2026 12:34 24,3 °C 30,0 °C 26,7 °C 56 % 1018,9 hPa 0,0 l/m² 2 min 761 W/m² 19,3 km/h (3 Bft) 100,00 %
02.05.2026 12:36 24,3 °C 29,4 °C 26,7 °C 55 % 1018,8 hPa 0,0 l/m² 2 min 743 W/m² 16,1 km/h (3 Bft) 100,00 %
02.05.2026 12:38 24,4 °C 30,0 °C 27,2 °C 56 % 1018,8 hPa 0,0 l/m² 2 min 705 W/m² 9,7 km/h (2 Bft) 100,00 %
02.05.2026 12:40 24,4 °C 30,6 °C 27,2 °C 55 % 1018,7 hPa 0,0 l/m² 2 min 733 W/m² 12,9 km/h (3 Bft) 97,37 %
02.05.2026 12:42 24,5 °C 30,6 °C 27,2 °C 55 % 1018,8 hPa 0,0 l/m² 2 min 834 W/m² 19,3 km/h (3 Bft) 100,00 %
02.05.2026 12:44 24,6 °C 30,6 °C 27,8 °C 55 % 1018,7 hPa 0,0 l/m² 2 min 794 W/m² 19,3 km/h (3 Bft) 97,87 %
02.05.2026 12:46 24,6 °C 30,0 °C 27,8 °C 55 % 1018,7 hPa 0,0 l/m² 2 min 738 W/m² 22,5 km/h (4 Bft) 100,00 %
02.05.2026 12:48 24,6 °C 29,4 °C 26,7 °C 55 % 1018,6 hPa 0,0 l/m² 2 min 708 W/m² 22,5 km/h (4 Bft) 100,00 %
02.05.2026 12:50 24,6 °C 30,0 °C 26,7 °C 55 % 1018,7 hPa 0,0 l/m² 2 min 763 W/m² 12,9 km/h (3 Bft) 98,00 %
02.05.2026 12:52 24,7 °C 30,6 °C 27,8 °C 55 % 1018,6 hPa 0,0 l/m² 2 min 796 W/m² 12,9 km/h (3 Bft) 100,00 %
02.05.2026 12:54 24,7 °C 31,1 °C 27,8 °C 55 % 1018,6 hPa 0,0 l/m² 2 min 750 W/m² 6,4 km/h (2 Bft) 100,00 %
02.05.2026 12:56 24,8 °C 32,2 °C 28,3 °C 55 % 1018,6 hPa 0,0 l/m² 2 min 840 W/m² 6,4 km/h (2 Bft) 100,00 %
02.05.2026 12:58 24,8 °C 31,1 °C 28,3 °C 55 % 1018,6 hPa 0,0 l/m² 2 min 766 W/m² 19,3 km/h (3 Bft) 97,87 %
02.05.2026 13:00 24,9 °C 30,6 °C 27,8 °C 55 % 1018,6 hPa 0,0 l/m² 2 min 704 W/m² 22,5 km/h (4 Bft) 97,87 %
02.05.2026 13:02 24,9 °C 30,6 °C 27,8 °C 55 % 1018,6 hPa 0,0 l/m² 2 min 760 W/m² 19,3 km/h (3 Bft) 100,00 %
02.05.2026 13:04 25,0 °C 30,6 °C 28,3 °C 55 % 1018,6 hPa 0,0 l/m² 2 min 704 W/m² 16,1 km/h (3 Bft) 100,00 %
02.05.2026 13:06 25,1 °C 30,0 °C 27,8 °C 55 % 1018,5 hPa 0,0 l/m² 2 min 734 W/m² 16,1 km/h (3 Bft) 100,00 %
02.05.2026 13:08 25,1 °C 29,4 °C 27,8 °C 55 % 1018,5 hPa 0,0 l/m² 2 min 722 W/m² 19,3 km/h (3 Bft) 97,87 %
02.05.2026 13:10 25,1 °C 30,6 °C 27,8 °C 55 % 1018,5 hPa 0,0 l/m² 2 min 780 W/m² 12,9 km/h (3 Bft) 97,37 %
02.05.2026 13:12 25,1 °C 31,1 °C 28,3 °C 55 % 1018,4 hPa 0,0 l/m² 2 min 724 W/m² 6,4 km/h (2 Bft) 97,83 %
02.05.2026 13:14 25,2 °C 31,7 °C 28,9 °C 55 % 1018,4 hPa 0,0 l/m² 2 min 784 W/m² 16,1 km/h (3 Bft) 96,00 %
02.05.2026 13:16 25,2 °C 31,7 °C 28,9 °C 54 % 1018,4 hPa 0,0 l/m² 2 min 790 W/m² 12,9 km/h (3 Bft) 97,87 %
02.05.2026 13:18 25,3 °C 31,7 °C 28,9 °C 54 % 1018,4 hPa 0,0 l/m² 2 min 811 W/m² 19,3 km/h (3 Bft) 97,87 %
02.05.2026 13:20 25,4 °C 32,2 °C 29,4 °C 54 % 1018,4 hPa 0,0 l/m² 2 min 871 W/m² 16,1 km/h (3 Bft) 97,87 %
02.05.2026 13:22 25,4 °C 32,2 °C 29,4 °C 54 % 1018,3 hPa 0,0 l/m² 2 min 802 W/m² 12,9 km/h (3 Bft) 95,74 %
02.05.2026 13:24 25,6 °C 32,2 °C 28,9 °C 54 % 1018,4 hPa 0,0 l/m² 2 min 797 W/m² 12,9 km/h (3 Bft) 91,49 %
02.05.2026 13:26 25,7 °C 32,8 °C 28,9 °C 54 % 1018,3 hPa 0,0 l/m² 2 min 851 W/m² 16,1 km/h (3 Bft) 95,92 %
02.05.2026 13:28 25,7 °C 31,7 °C 28,9 °C 53 % 1018,3 hPa 0,0 l/m² 2 min 838 W/m² 16,1 km/h (3 Bft) 91,49 %
02.05.2026 13:30 25,8 °C 32,8 °C 29,4 °C 53 % 1018,2 hPa 0,0 l/m² 2 min 851 W/m² 16,1 km/h (3 Bft) 96,00 %
02.05.2026 13:32 25,8 °C 32,8 °C 28,9 °C 53 % 1018,2 hPa 0,0 l/m² 2 min 833 W/m² 12,9 km/h (3 Bft) 95,74 %
02.05.2026 13:34 25,9 °C 32,8 °C 29,4 °C 53 % 1018,2 hPa 0,0 l/m² 2 min 805 W/m² 19,3 km/h (3 Bft) 97,14 %
02.05.2026 13:36 25,9 °C 32,8 °C 29,4 °C 53 % 1018,1 hPa 0,0 l/m² 2 min 825 W/m² 12,9 km/h (3 Bft) 94,64 %
02.05.2026 13:38 26,1 °C 32,8 °C 29,4 °C 53 % 1018,1 hPa 0,0 l/m² 2 min 822 W/m² 9,7 km/h (2 Bft) 95,74 %
02.05.2026 13:40 26,1 °C 32,8 °C 29,4 °C 53 % 1018,1 hPa 0,0 l/m² 2 min 791 W/m² 19,3 km/h (3 Bft) 95,74 %
02.05.2026 13:42 26,2 °C 32,8 °C 28,9 °C 53 % 1018,1 hPa 0,0 l/m² 2 min 822 W/m² 16,1 km/h (3 Bft) 95,92 %
02.05.2026 13:44 26,3 °C 32,2 °C 28,3 °C 52 % 1018,0 hPa 0,0 l/m² 2 min 790 W/m² 22,5 km/h (4 Bft) 92,86 %
02.05.2026 13:46 26,3 °C 32,2 °C 27,2 °C 52 % 1018,0 hPa 0,0 l/m² 2 min 766 W/m² 16,1 km/h (3 Bft) 95,74 %
02.05.2026 13:48 26,3 °C 32,2 °C 26,7 °C 52 % 1018,0 hPa 0,0 l/m² 2 min 745 W/m² 6,4 km/h (2 Bft) 95,74 %
02.05.2026 13:50 26,3 °C 32,2 °C 25,6 °C 52 % 1017,9 hPa 0,0 l/m² 2 min 807 W/m² 6,4 km/h (2 Bft) 95,74 %
02.05.2026 13:52 26,2 °C 32,8 °C 25,6 °C 52 % 1017,9 hPa 0,0 l/m² 2 min 825 W/m² 12,9 km/h (3 Bft) 94,00 %
02.05.2026 13:54 26,3 °C 32,2 °C 25,0 °C 53 % 1017,9 hPa 0,0 l/m² 2 min 757 W/m² 16,1 km/h (3 Bft) 97,87 %
02.05.2026 13:56 26,3 °C 32,8 °C 24,4 °C 52 % 1017,8 hPa 0,0 l/m² 2 min 762 W/m² 12,9 km/h (3 Bft) 95,74 %
02.05.2026 13:58 26,4 °C 32,8 °C 23,9 °C 52 % 1017,8 hPa 0,0 l/m² 2 min 792 W/m² 12,9 km/h (3 Bft) 97,37 %
02.05.2026 14:00 26,4 °C 32,8 °C 23,9 °C 52 % 1017,8 hPa 0,0 l/m² 2 min 793 W/m² 12,9 km/h (3 Bft) 100,00 %
02.05.2026 14:02 26,5 °C 32,8 °C 23,9 °C 52 % 1017,8 hPa 0,0 l/m² 2 min 764 W/m² 12,9 km/h (3 Bft) 100,00 %
02.05.2026 14:04 26,5 °C 32,8 °C 23,3 °C 52 % 1017,7 hPa 0,0 l/m² 2 min 745 W/m² 19,3 km/h (3 Bft) 100,00 %
02.05.2026 14:06 26,5 °C 32,8 °C 23,3 °C 52 % 1017,8 hPa 0,0 l/m² 2 min 838 W/m² 12,9 km/h (3 Bft) 100,00 %
02.05.2026 14:08 26,6 °C 31,1 °C 23,3 °C 52 % 1017,7 hPa 0,0 l/m² 2 min 865 W/m² 12,9 km/h (3 Bft) 100,00 %
02.05.2026 14:10 26,6 °C 31,1 °C 23,3 °C 52 % 1017,7 hPa 0,0 l/m² 2 min 858 W/m² 19,3 km/h (3 Bft) 100,00 %
02.05.2026 14:12 26,6 °C 30,6 °C 22,8 °C 52 % 1017,7 hPa 0,0 l/m² 2 min 836 W/m² 16,1 km/h (3 Bft) 100,00 %
02.05.2026 14:14 26,6 °C 30,6 °C 22,8 °C 52 % 1017,6 hPa 0,0 l/m² 2 min 835 W/m² 16,1 km/h (3 Bft) 100,00 %
02.05.2026 14:16 26,6 °C 31,1 °C 22,8 °C 51 % 1017,7 hPa 0,0 l/m² 2 min 835 W/m² 22,5 km/h (4 Bft) 97,87 %
02.05.2026 14:18 26,6 °C 31,7 °C 22,8 °C 52 % 1017,6 hPa 0,0 l/m² 2 min 754 W/m² 19,3 km/h (3 Bft) 100,00 %
02.05.2026 14:20 26,6 °C 31,1 °C 22,8 °C 53 % 1017,5 hPa 0,0 l/m² 2 min 650 W/m² 6,4 km/h (2 Bft) 100,00 %
02.05.2026 14:22 26,6 °C 31,1 °C 22,8 °C 51 % 1017,5 hPa 0,0 l/m² 2 min 670 W/m² 12,9 km/h (3 Bft) 97,87 %
02.05.2026 14:24 26,6 °C 30,6 °C 22,8 °C 51 % 1017,4 hPa 0,0 l/m² 2 min 707 W/m² 16,1 km/h (3 Bft) 97,78 %
02.05.2026 14:26 26,6 °C 31,7 °C 22,8 °C 52 % 1017,3 hPa 0,0 l/m² 2 min 772 W/m² 6,4 km/h (2 Bft) 96,00 %
02.05.2026 14:28 26,7 °C 31,1 °C 22,8 °C 52 % 1017,3 hPa 0,0 l/m² 2 min 634 W/m² 12,9 km/h (3 Bft) 97,87 %
02.05.2026 14:30 26,7 °C 30,0 °C 22,8 °C 51 % 1017,2 hPa 0,0 l/m² 2 min 418 W/m² 16,1 km/h (3 Bft) 97,96 %
02.05.2026 14:32 26,6 °C 30,0 °C 22,8 °C 52 % 1017,2 hPa 0,0 l/m² 2 min 624 W/m² 22,5 km/h (4 Bft) 97,87 %
02.05.2026 14:34 26,6 °C 29,4 °C 22,8 °C 51 % 1017,2 hPa 0,0 l/m² 2 min 630 W/m² 19,3 km/h (3 Bft) 95,74 %
02.05.2026 14:36 26,6 °C 30,0 °C 22,8 °C 51 % 1017,3 hPa 0,0 l/m² 2 min 665 W/m² 16,1 km/h (3 Bft) 93,62 %
02.05.2026 14:38 26,6 °C 29,4 °C 22,8 °C 51 % 1017,2 hPa 0,0 l/m² 2 min 602 W/m² 16,1 km/h (3 Bft) 97,87 %
02.05.2026 14:40 26,6 °C 29,4 °C 22,8 °C 52 % 1017,3 hPa 0,0 l/m² 2 min 468 W/m² 6,4 km/h (2 Bft) 97,87 %
02.05.2026 14:42 26,5 °C 27,8 °C 22,2 °C 52 % 1017,3 hPa 0,0 l/m² 2 min 445 W/m² 16,1 km/h (3 Bft) 97,62 %
02.05.2026 14:44 26,4 °C 27,2 °C 22,2 °C 53 % 1017,3 hPa 0,0 l/m² 0 min 217 W/m² 12,9 km/h (3 Bft) 96,00 %
02.05.2026 14:46 26,4 °C 26,7 °C 22,2 °C 53 % 1017,3 hPa 0,0 l/m² 0 min 211 W/m² 12,9 km/h (3 Bft) 97,83 %
02.05.2026 14:48 26,3 °C 26,1 °C 22,2 °C 53 % 1017,3 hPa 0,0 l/m² 0 min 204 W/m² 16,1 km/h (3 Bft) 98,00 %
02.05.2026 14:50 26,2 °C 25,0 °C 21,7 °C 52 % 1017,4 hPa 0,0 l/m² 0 min 182 W/m² 25,7 km/h (4 Bft) 97,87 %
02.05.2026 14:52 26,1 °C 25,0 °C 21,7 °C 53 % 1017,3 hPa 0,0 l/m² 0 min 172 W/m² 6,4 km/h (2 Bft) 97,87 %
02.05.2026 14:54 25,9 °C 25,0 °C 21,7 °C 53 % 1017,3 hPa 0,0 l/m² 0 min 166 W/m² 6,4 km/h (2 Bft) 97,37 %
02.05.2026 14:56 25,8 °C 24,4 °C 21,7 °C 53 % 1017,4 hPa 0,0 l/m² 0 min 147 W/m² 16,1 km/h (3 Bft) 94,00 %
02.05.2026 14:58 25,7 °C 24,4 °C 21,1 °C 53 % 1017,4 hPa 0,0 l/m² 0 min 135 W/m² 16,1 km/h (3 Bft) 97,87 %
02.05.2026 15:00 25,6 °C 24,4 °C 21,1 °C 54 % 1017,3 hPa 0,0 l/m² 0 min 137 W/m² 16,1 km/h (3 Bft) 97,87 %
02.05.2026 15:02 25,4 °C 24,4 °C 21,1 °C 54 % 1017,3 hPa 0,0 l/m² 0 min 153 W/m² 12,9 km/h (3 Bft) 98,08 %
02.05.2026 15:04 25,4 °C 24,4 °C 21,1 °C 54 % 1017,3 hPa 0,0 l/m² 0 min 198 W/m² 12,9 km/h (3 Bft) 100,00 %
02.05.2026 15:06 25,3 °C 25,0 °C 21,1 °C 54 % 1017,2 hPa 0,0 l/m² 0 min 269 W/m² 6,4 km/h (2 Bft) 100,00 %
02.05.2026 15:08 25,2 °C 25,6 °C 21,1 °C 55 % 1017,2 hPa 0,0 l/m² 0 min 331 W/m² 12,9 km/h (3 Bft) 97,14 %
02.05.2026 15:10 25,2 °C 26,1 °C 21,7 °C 55 % 1017,2 hPa 0,0 l/m² 2 min 399 W/m² 12,9 km/h (3 Bft) 100,00 %
02.05.2026 15:12 25,2 °C 26,1 °C 21,7 °C 55 % 1017,2 hPa 0,0 l/m² 2 min 372 W/m² 16,1 km/h (3 Bft) 96,00 %
02.05.2026 15:14 25,2 °C 26,1 °C 21,7 °C 55 % 1017,2 hPa 0,0 l/m² 2 min 385 W/m² 12,9 km/h (3 Bft) 100,00 %
02.05.2026 15:16 25,3 °C 26,1 °C 21,7 °C 55 % 1017,1 hPa 0,0 l/m² 2 min 493 W/m² 16,1 km/h (3 Bft) 100,00 %
02.05.2026 15:18 25,3 °C 25,0 °C 21,7 °C 55 % 1017,1 hPa 0,0 l/m² 0 min 275 W/m² 16,1 km/h (3 Bft) 100,00 %
02.05.2026 15:20 25,2 °C 25,0 °C 21,1 °C 55 % 1017,1 hPa 0,0 l/m² 0 min 218 W/m² 12,9 km/h (3 Bft) 100,00 %
02.05.2026 15:22 25,2 °C 24,4 °C 21,1 °C 56 % 1017,1 hPa 0,0 l/m² 0 min 191 W/m² 16,1 km/h (3 Bft) 98,00 %
02.05.2026 15:24 25,2 °C 24,4 °C 21,1 °C 56 % 1017,2 hPa 0,0 l/m² 0 min 175 W/m² 16,1 km/h (3 Bft) 98,15 %
02.05.2026 15:26 25,1 °C 23,9 °C 20,6 °C 56 % 1017,2 hPa 0,0 l/m² 0 min 159 W/m² 12,9 km/h (3 Bft) 97,37 %
02.05.2026 15:28 25,1 °C 23,9 °C 20,6 °C 56 % 1017,2 hPa 0,0 l/m² 0 min 126 W/m² 16,1 km/h (3 Bft) 97,87 %
02.05.2026 15:30 25,0 °C 23,3 °C 20,6 °C 56 % 1017,2 hPa 0,0 l/m² 0 min 92 W/m² 16,1 km/h (3 Bft) 97,87 %
02.05.2026 15:32 24,9 °C 23,3 °C 20,0 °C 57 % 1017,2 hPa 0,0 l/m² 0 min 75 W/m² 16,1 km/h (3 Bft) 98,00 %
02.05.2026 15:34 24,8 °C 23,3 °C 20,0 °C 57 % 1017,2 hPa 0,0 l/m² 0 min 75 W/m² 16,1 km/h (3 Bft) 97,83 %
02.05.2026 15:36 24,8 °C 22,8 °C 20,0 °C 57 % 1017,1 hPa 0,0 l/m² 0 min 82 W/m² 16,1 km/h (3 Bft) 98,00 %
02.05.2026 15:38 24,7 °C 22,8 °C 18,3 °C 60 % 1017,0 hPa 0,0 l/m² 0 min 76 W/m² 19,3 km/h (3 Bft) 97,87 %
02.05.2026 15:40 24,6 °C 22,2 °C 16,7 °C 62 % 1017,0 hPa 0,0 l/m² 0 min 62 W/m² 16,1 km/h (3 Bft) 97,87 %
02.05.2026 15:42 24,4 °C 21,7 °C 16,1 °C 63 % 1017,0 hPa 0,0 l/m² 0 min 63 W/m² 22,5 km/h (4 Bft) 95,74 %
02.05.2026 15:44 24,2 °C 21,1 °C 16,1 °C 65 % 1017,1 hPa 0,0 l/m² 0 min 61 W/m² 16,1 km/h (3 Bft) 98,00 %
02.05.2026 15:46 24,0 °C 20,6 °C 16,1 °C 66 % 1017,1 hPa 0,0 l/m² 0 min 49 W/m² 12,9 km/h (3 Bft) 100,00 %
02.05.2026 15:48 23,7 °C 20,6 °C 16,1 °C 67 % 1017,0 hPa 0,0 l/m² 0 min 37 W/m² 16,1 km/h (3 Bft) 96,00 %
02.05.2026 15:50 23,6 °C 20,6 °C 16,1 °C 68 % 1017,0 hPa 0,0 l/m² 0 min 31 W/m² 12,9 km/h (3 Bft) 97,96 %
02.05.2026 15:52 23,3 °C 20,6 °C 16,1 °C 68 % 1017,0 hPa 0,0 l/m² 0 min 25 W/m² 6,4 km/h (2 Bft) 97,62 %
02.05.2026 15:54 23,2 °C 20,0 °C 16,1 °C 69 % 1017,1 hPa 0,0 l/m² 0 min 25 W/m² 12,9 km/h (3 Bft) 97,87 %
02.05.2026 15:56 23,1 °C 20,0 °C 15,6 °C 71 % 1017,1 hPa 0,0 l/m² 0 min 26 W/m² 12,9 km/h (3 Bft) 100,00 %
02.05.2026 15:58 22,9 °C 20,0 °C 15,6 °C 71 % 1017,0 hPa 0,0 l/m² 0 min 32 W/m² 6,4 km/h (2 Bft) 98,00 %
02.05.2026 16:00 22,7 °C 20,0 °C 15,0 °C 72 % 1017,0 hPa 0,2 l/m² 0 min 44 W/m² 9,7 km/h (2 Bft) 100,00 %
02.05.2026 16:02 22,7 °C 20,0 °C 14,4 °C 73 % 1017,0 hPa 0,0 l/m² 0 min 54 W/m² 6,4 km/h (2 Bft) 100,00 %
02.05.2026 16:04 22,6 °C 20,0 °C 14,4 °C 73 % 1017,2 hPa 0,0 l/m² 0 min 60 W/m² 6,4 km/h (2 Bft) 97,87 %
02.05.2026 16:06 22,4 °C 20,0 °C 14,4 °C 75 % 1017,1 hPa 0,0 l/m² 0 min 62 W/m² 3,2 km/h (1 Bft) 100,00 %
02.05.2026 16:08 22,2 °C 20,0 °C 14,4 °C 77 % 1017,0 hPa 0,2 l/m² 0 min 58 W/m² 3,2 km/h (1 Bft) 100,00 %
02.05.2026 16:10 22,1 °C 20,0 °C 14,4 °C 78 % 1016,9 hPa 0,0 l/m² 0 min 57 W/m² 3,2 km/h (1 Bft) 98,15 %
02.05.2026 16:12 21,9 °C 20,0 °C 14,4 °C 78 % 1016,9 hPa 0,0 l/m² 0 min 56 W/m² 3,2 km/h (1 Bft) 98,00 %
02.05.2026 16:14 21,8 °C 20,0 °C 14,4 °C 78 % 1017,0 hPa 0,0 l/m² 0 min 57 W/m² 6,4 km/h (2 Bft) 93,62 %
02.05.2026 16:16 21,7 °C 20,0 °C 14,4 °C 78 % 1016,9 hPa 0,0 l/m² 0 min 64 W/m² 0,0 km/h (0 Bft) 97,87 %
02.05.2026 16:18 21,6 °C 20,0 °C 14,4 °C 79 % 1016,8 hPa 0,0 l/m² 0 min 75 W/m² 3,2 km/h (1 Bft) 97,83 %
02.05.2026 16:20 21,6 °C 20,6 °C 14,4 °C 80 % 1016,8 hPa 0,0 l/m² 0 min 92 W/m² 3,2 km/h (1 Bft) 95,74 %
02.05.2026 16:22 21,6 °C 20,6 °C 14,4 °C 80 % 1016,9 hPa 0,0 l/m² 0 min 111 W/m² 3,2 km/h (1 Bft) 97,87 %
02.05.2026 16:24 21,5 °C 21,1 °C 15,0 °C 80 % 1017,0 hPa 0,0 l/m² 0 min 155 W/m² 3,2 km/h (1 Bft) 97,87 %
02.05.2026 16:26 21,4 °C 21,1 °C 14,4 °C 81 % 1017,0 hPa 0,0 l/m² 0 min 182 W/m² 6,4 km/h (2 Bft) 97,87 %
02.05.2026 16:28 21,4 °C 21,1 °C 14,4 °C 81 % 1017,0 hPa 0,0 l/m² 0 min 216 W/m² 6,4 km/h (2 Bft) 97,87 %
02.05.2026 16:30 21,3 °C 21,7 °C 15,0 °C 81 % 1017,0 hPa 0,0 l/m² 0 min 245 W/m² 6,4 km/h (2 Bft) 97,14 %
02.05.2026 16:32 21,3 °C 21,7 °C 15,0 °C 81 % 1016,9 hPa 0,0 l/m² 0 min 229 W/m² 3,2 km/h (1 Bft) 98,21 %
02.05.2026 16:34 21,4 °C 21,1 °C 15,0 °C 81 % 1016,8 hPa 0,0 l/m² 0 min 196 W/m² 3,2 km/h (1 Bft) 97,87 %
02.05.2026 16:36 21,3 °C 21,1 °C 15,0 °C 81 % 1016,7 hPa 0,0 l/m² 0 min 160 W/m² 0,0 km/h (0 Bft) 100,00 %
02.05.2026 16:38 21,3 °C 21,1 °C 15,0 °C 81 % 1016,7 hPa 0,0 l/m² 0 min 148 W/m² 3,2 km/h (1 Bft) 96,00 %
02.05.2026 16:40 21,3 °C 21,1 °C 15,0 °C 81 % 1016,7 hPa 0,0 l/m² 0 min 154 W/m² 0,0 km/h (0 Bft) 100,00 %
02.05.2026 16:42 21,3 °C 21,7 °C 15,0 °C 80 % 1016,6 hPa 0,0 l/m² 0 min 170 W/m² 3,2 km/h (1 Bft) 95,74 %
02.05.2026 16:44 21,3 °C 21,7 °C 14,4 °C 80 % 1016,6 hPa 0,0 l/m² 0 min 197 W/m² 3,2 km/h (1 Bft) 97,87 %
02.05.2026 16:46 21,3 °C 22,2 °C 15,0 °C 80 % 1016,6 hPa 0,0 l/m² 0 min 253 W/m² 0,0 km/h (0 Bft) 97,87 %
02.05.2026 16:48 21,3 °C 23,3 °C 15,6 °C 80 % 1016,5 hPa 0,0 l/m² 2 min 332 W/m² 0,0 km/h (0 Bft) 97,87 %
02.05.2026 16:50 21,4 °C 23,3 °C 16,1 °C 81 % 1016,4 hPa 0,0 l/m² 2 min 303 W/m² 0,0 km/h (0 Bft) 95,74 %
02.05.2026 16:52 21,6 °C 23,9 °C 16,1 °C 81 % 1016,4 hPa 0,0 l/m² 0 min 281 W/m² 3,2 km/h (1 Bft) 97,83 %
02.05.2026 16:54 21,7 °C 24,4 °C 16,7 °C 81 % 1016,3 hPa 0,0 l/m² 2 min 365 W/m² 6,4 km/h (2 Bft) 97,87 %
02.05.2026 16:56 21,8 °C 25,0 °C 17,2 °C 82 % 1016,3 hPa 0,0 l/m² 2 min 382 W/m² 9,7 km/h (2 Bft) 97,87 %
02.05.2026 16:58 22,0 °C 25,0 °C 17,2 °C 83 % 1016,3 hPa 0,0 l/m² 2 min 392 W/m² 6,4 km/h (2 Bft) 97,87 %
02.05.2026 17:00 22,1 °C 26,1 °C 17,8 °C 82 % 1016,2 hPa 0,0 l/m² 2 min 573 W/m² 6,4 km/h (2 Bft) 100,00 %
02.05.2026 17:02 22,1 °C 26,7 °C 18,3 °C 81 % 1016,2 hPa 0,0 l/m² 2 min 499 W/m² 3,2 km/h (1 Bft) 98,00 %
02.05.2026 17:04 22,2 °C 27,8 °C 18,3 °C 81 % 1016,1 hPa 0,0 l/m² 2 min 435 W/m² 6,4 km/h (2 Bft) 95,74 %
02.05.2026 17:06 22,3 °C 28,3 °C 18,3 °C 79 % 1016,1 hPa 0,0 l/m² 2 min 536 W/m² 6,4 km/h (2 Bft) 97,87 %
02.05.2026 17:08 22,4 °C 28,9 °C 18,9 °C 78 % 1016,0 hPa 0,0 l/m² 2 min 510 W/m² 3,2 km/h (1 Bft) 97,83 %
02.05.2026 17:10 22,7 °C 28,9 °C 18,9 °C 78 % 1016,0 hPa 0,0 l/m² 2 min 479 W/m² 6,4 km/h (2 Bft) 97,44 %
02.05.2026 17:12 22,8 °C 28,9 °C 18,9 °C 76 % 1016,0 hPa 0,0 l/m² 2 min 484 W/m² 6,4 km/h (2 Bft) 97,83 %
02.05.2026 17:14 23,1 °C 28,9 °C 19,4 °C 77 % 1015,9 hPa 0,0 l/m² 2 min 514 W/m² 3,2 km/h (1 Bft) 97,87 %
02.05.2026 17:16 23,2 °C 28,3 °C 19,4 °C 76 % 1015,9 hPa 0,0 l/m² 2 min 504 W/m² 3,2 km/h (1 Bft) 93,62 %
02.05.2026 17:18 23,3 °C 27,8 °C 19,4 °C 75 % 1015,9 hPa 0,0 l/m² 2 min 329 W/m² 6,4 km/h (2 Bft) 95,74 %
02.05.2026 17:20 23,4 °C 27,2 °C 19,4 °C 73 % 1015,9 hPa 0,0 l/m² 2 min 331 W/m² 6,4 km/h (2 Bft) 95,74 %
02.05.2026 17:22 23,5 °C 27,8 °C 19,4 °C 72 % 1015,8 hPa 0,0 l/m² 2 min 393 W/m² 6,4 km/h (2 Bft) 95,74 %
02.05.2026 17:24 23,6 °C 28,3 °C 19,4 °C 71 % 1015,9 hPa 0,0 l/m² 2 min 640 W/m² 6,4 km/h (2 Bft) 95,74 %
02.05.2026 17:26 23,7 °C 28,3 °C 20,0 °C 70 % 1015,9 hPa 0,0 l/m² 2 min 679 W/m² 9,7 km/h (2 Bft) 95,74 %
02.05.2026 17:28 23,8 °C 28,9 °C 20,0 °C 71 % 1015,9 hPa 0,0 l/m² 2 min 679 W/m² 6,4 km/h (2 Bft) 95,92 %
02.05.2026 17:30 24,0 °C 28,3 °C 20,0 °C 71 % 1015,8 hPa 0,0 l/m² 2 min 575 W/m² 12,9 km/h (3 Bft) 94,00 %
02.05.2026 17:32 24,1 °C 27,2 °C 20,0 °C 70 % 1015,8 hPa 0,0 l/m² 2 min 357 W/m² 6,4 km/h (2 Bft) 95,74 %
02.05.2026 17:34 24,2 °C 27,2 °C 20,0 °C 70 % 1015,7 hPa 0,0 l/m² 2 min 274 W/m² 6,4 km/h (2 Bft) 95,74 %
02.05.2026 17:36 24,2 °C 26,7 °C 20,0 °C 69 % 1015,7 hPa 0,0 l/m² 2 min 265 W/m² 9,7 km/h (2 Bft) 95,74 %
02.05.2026 17:38 24,2 °C 27,8 °C 20,0 °C 69 % 1015,7 hPa 0,0 l/m² 2 min 287 W/m² 6,4 km/h (2 Bft) 95,74 %
02.05.2026 17:40 24,3 °C 27,8 °C 20,0 °C 68 % 1015,7 hPa 0,0 l/m² 2 min 517 W/m² 9,7 km/h (2 Bft) 95,74 %
02.05.2026 17:42 24,3 °C 28,9 °C 20,6 °C 69 % 1015,6 hPa 0,0 l/m² 2 min 494 W/m² 6,4 km/h (2 Bft) 97,83 %
02.05.2026 17:44 24,5 °C 29,4 °C 20,6 °C 69 % 1015,6 hPa 0,0 l/m² 2 min 524 W/m² 9,7 km/h (2 Bft) 95,74 %
02.05.2026 17:46 24,6 °C 30,0 °C 20,6 °C 69 % 1015,7 hPa 0,0 l/m² 2 min 504 W/m² 6,4 km/h (2 Bft) 93,62 %
02.05.2026 17:48 24,8 °C 30,0 °C 20,6 °C 69 % 1015,6 hPa 0,0 l/m² 2 min 496 W/m² 6,4 km/h (2 Bft) 97,87 %
02.05.2026 17:50 24,9 °C 28,9 °C 20,6 °C 67 % 1015,6 hPa 0,0 l/m² 2 min 430 W/m² 6,4 km/h (2 Bft) 100,00 %
02.05.2026 17:52 24,9 °C 28,3 °C 20,6 °C 66 % 1015,5 hPa 0,0 l/m² 0 min 141 W/m² 6,4 km/h (2 Bft) 100,00 %
02.05.2026 17:54 24,9 °C 28,9 °C 20,6 °C 66 % 1015,4 hPa 0,0 l/m² 2 min 383 W/m² 6,4 km/h (2 Bft) 97,87 %
02.05.2026 17:56 25,0 °C 29,4 °C 20,6 °C 67 % 1015,3 hPa 0,0 l/m² 2 min 430 W/m² 6,4 km/h (2 Bft) 100,00 %
02.05.2026 17:58 25,1 °C 28,9 °C 20,6 °C 66 % 1015,3 hPa 0,0 l/m² 2 min 432 W/m² 9,7 km/h (2 Bft) 100,00 %
02.05.2026 18:00 25,1 °C 30,0 °C 20,6 °C 66 % 1015,3 hPa 0,0 l/m² 2 min 439 W/m² 6,4 km/h (2 Bft) 100,00 %
02.05.2026 18:02 25,2 °C 30,6 °C 20,6 °C 66 % 1015,3 hPa 0,0 l/m² 2 min 454 W/m² 6,4 km/h (2 Bft) 97,87 %
02.05.2026 18:04 25,2 °C 30,0 °C 20,6 °C 66 % 1015,2 hPa 0,0 l/m² 2 min 435 W/m² 6,4 km/h (2 Bft) 100,00 %
02.05.2026 18:06 25,2 °C 29,4 °C 20,6 °C 66 % 1015,2 hPa 0,0 l/m² 2 min 273 W/m² 6,4 km/h (2 Bft) 100,00 %
02.05.2026 18:08 25,2 °C 27,8 °C 20,6 °C 65 % 1015,2 hPa 0,0 l/m² 0 min 169 W/m² 6,4 km/h (2 Bft) 100,00 %
02.05.2026 18:10 25,2 °C 26,7 °C 20,0 °C 64 % 1015,1 hPa 0,0 l/m² 0 min 124 W/m² 6,4 km/h (2 Bft) 100,00 %
02.05.2026 18:12 25,2 °C 26,1 °C 20,0 °C 65 % 1015,1 hPa 0,0 l/m² 0 min 103 W/m² 6,4 km/h (2 Bft) 100,00 %
02.05.2026 18:14 25,1 °C 25,0 °C 19,4 °C 64 % 1015,0 hPa 0,0 l/m² 0 min 102 W/m² 3,2 km/h (1 Bft) 100,00 %
02.05.2026 18:16 25,0 °C 24,4 °C 19,4 °C 65 % 1015,0 hPa 0,0 l/m² 0 min 92 W/m² 3,2 km/h (1 Bft) 100,00 %
02.05.2026 18:18 24,9 °C 23,9 °C 18,9 °C 65 % 1014,9 hPa 0,0 l/m² 0 min 85 W/m² 3,2 km/h (1 Bft) 97,87 %
02.05.2026 18:20 24,8 °C 23,9 °C 18,9 °C 66 % 1014,8 hPa 0,0 l/m² 0 min 84 W/m² 3,2 km/h (1 Bft) 100,00 %
02.05.2026 18:22 24,6 °C 23,9 °C 18,9 °C 66 % 1014,7 hPa 0,0 l/m² 0 min 96 W/m² 3,2 km/h (1 Bft) 100,00 %
02.05.2026 18:24 24,5 °C 23,9 °C 18,9 °C 66 % 1014,7 hPa 0,0 l/m² 0 min 123 W/m² 3,2 km/h (1 Bft) 100,00 %
02.05.2026 18:26 24,4 °C 23,9 °C 18,9 °C 66 % 1014,7 hPa 0,0 l/m² 0 min 131 W/m² 3,2 km/h (1 Bft) 100,00 %
02.05.2026 18:28 24,3 °C 23,9 °C 18,9 °C 66 % 1014,7 hPa 0,0 l/m² 0 min 126 W/m² 6,4 km/h (2 Bft) 96,00 %
02.05.2026 18:30 24,2 °C 23,9 °C 18,9 °C 66 % 1014,6 hPa 0,0 l/m² 0 min 132 W/m² 3,2 km/h (1 Bft) 97,83 %
02.05.2026 18:32 24,2 °C 23,9 °C 18,3 °C 67 % 1014,7 hPa 0,0 l/m² 0 min 88 W/m² 0,0 km/h (0 Bft) 100,00 %
02.05.2026 18:34 24,1 °C 23,9 °C 18,3 °C 66 % 1014,6 hPa 0,0 l/m² 0 min 73 W/m² 3,2 km/h (1 Bft) 100,00 %
02.05.2026 18:36 24,0 °C 23,3 °C 18,3 °C 66 % 1014,7 hPa 0,0 l/m² 0 min 80 W/m² 3,2 km/h (1 Bft) 100,00 %
02.05.2026 18:38 23,9 °C 23,3 °C 18,3 °C 67 % 1014,7 hPa 0,0 l/m² 0 min 105 W/m² 3,2 km/h (1 Bft) 100,00 %
02.05.2026 18:40 23,9 °C 23,3 °C 18,3 °C 67 % 1014,7 hPa 0,0 l/m² 0 min 90 W/m² 3,2 km/h (1 Bft) 100,00 %
02.05.2026 18:42 23,8 °C 23,3 °C 18,3 °C 67 % 1014,8 hPa 0,0 l/m² 0 min 86 W/m² 0,0 km/h (0 Bft) 100,00 %
02.05.2026 18:44 23,8 °C 23,3 °C 18,3 °C 67 % 1014,7 hPa 0,0 l/m² 0 min 86 W/m² 0,0 km/h (0 Bft) 100,00 %
02.05.2026 18:46 23,8 °C 22,8 °C 18,3 °C 69 % 1014,6 hPa 0,0 l/m² 0 min 84 W/m² 0,0 km/h (0 Bft) 100,00 %
02.05.2026 18:48 23,7 °C 22,8 °C 18,3 °C 69 % 1014,5 hPa 0,0 l/m² 0 min 84 W/m² 3,2 km/h (1 Bft) 97,14 %
02.05.2026 18:50 23,7 °C 22,8 °C 17,8 °C 69 % 1014,5 hPa 0,0 l/m² 0 min 84 W/m² 3,2 km/h (1 Bft) 100,00 %
02.05.2026 18:52 23,6 °C 22,8 °C 17,8 °C 69 % 1014,5 hPa 0,0 l/m² 0 min 84 W/m² 3,2 km/h (1 Bft) 100,00 %
02.05.2026 18:54 23,5 °C 22,2 °C 17,8 °C 69 % 1014,6 hPa 0,0 l/m² 0 min 84 W/m² 3,2 km/h (1 Bft) 100,00 %
02.05.2026 18:56 23,4 °C 22,2 °C 17,8 °C 69 % 1014,5 hPa 0,0 l/m² 0 min 83 W/m² 3,2 km/h (1 Bft) 100,00 %
02.05.2026 18:58 23,4 °C 22,2 °C 17,8 °C 69 % 1014,4 hPa 0,0 l/m² 0 min 85 W/m² 3,2 km/h (1 Bft) 97,87 %
02.05.2026 19:00 23,3 °C 22,2 °C 18,3 °C 69 % 1014,4 hPa 0,0 l/m² 0 min 93 W/m² 3,2 km/h (1 Bft) 100,00 %
02.05.2026 19:02 23,3 °C 22,2 °C 18,3 °C 69 % 1014,3 hPa 0,0 l/m² 0 min 104 W/m² 3,2 km/h (1 Bft) 95,65 %
02.05.2026 19:04 23,2 °C 22,8 °C 18,3 °C 69 % 1014,3 hPa 0,0 l/m² 0 min 117 W/m² 6,4 km/h (2 Bft) 100,00 %
02.05.2026 19:06 23,2 °C 22,8 °C 18,3 °C 69 % 1014,2 hPa 0,0 l/m² 0 min 126 W/m² 3,2 km/h (1 Bft) 100,00 %
02.05.2026 19:08 23,2 °C 22,8 °C 18,3 °C 68 % 1014,3 hPa 0,0 l/m² 0 min 126 W/m² 3,2 km/h (1 Bft) 97,87 %
02.05.2026 19:10 23,2 °C 22,8 °C 18,3 °C 69 % 1014,3 hPa 0,0 l/m² 0 min 114 W/m² 0,0 km/h (0 Bft) 100,00 %
02.05.2026 19:12 23,2 °C 22,8 °C 18,3 °C 69 % 1014,2 hPa 0,0 l/m² 0 min 96 W/m² 3,2 km/h (1 Bft) 98,00 %
02.05.2026 19:14 23,1 °C 22,8 °C 18,3 °C 70 % 1014,2 hPa 0,0 l/m² 0 min 79 W/m² 6,4 km/h (2 Bft) 97,37 %
02.05.2026 19:16 23,1 °C 22,2 °C 18,3 °C 71 % 1014,1 hPa 0,0 l/m² 0 min 66 W/m² 0,0 km/h (0 Bft) 96,00 %
02.05.2026 19:18 23,1 °C 22,2 °C 17,8 °C 72 % 1014,2 hPa 0,0 l/m² 0 min 63 W/m² 0,0 km/h (0 Bft) 95,74 %
02.05.2026 19:20 23,1 °C 22,2 °C 17,8 °C 72 % 1014,1 hPa 0,0 l/m² 0 min 69 W/m² 0,0 km/h (0 Bft) 95,65 %
02.05.2026 19:22 23,1 °C 22,2 °C 17,8 °C 72 % 1014,2 hPa 0,0 l/m² 0 min 72 W/m² 0,0 km/h (0 Bft) 95,74 %
02.05.2026 19:24 23,1 °C 22,2 °C 17,8 °C 72 % 1014,2 hPa 0,0 l/m² 0 min 69 W/m² 3,2 km/h (1 Bft) 95,74 %
02.05.2026 19:26 22,9 °C 22,2 °C 17,8 °C 71 % 1014,2 hPa 0,0 l/m² 0 min 63 W/m² 3,2 km/h (1 Bft) 93,62 %
02.05.2026 19:28 22,9 °C 22,2 °C 17,8 °C 71 % 1014,3 hPa 0,0 l/m² 0 min 53 W/m² 3,2 km/h (1 Bft) 93,62 %
02.05.2026 19:30 22,8 °C 21,7 °C 17,8 °C 71 % 1014,4 hPa 0,0 l/m² 0 min 39 W/m² 6,4 km/h (2 Bft) 96,00 %
02.05.2026 19:32 22,8 °C 21,7 °C 17,8 °C 70 % 1014,4 hPa 0,0 l/m² 0 min 29 W/m² 12,9 km/h (3 Bft) 96,00 %
02.05.2026 19:34 22,7 °C 21,7 °C 17,8 °C 70 % 1014,4 hPa 0,0 l/m² 0 min 26 W/m² 12,9 km/h (3 Bft) 94,74 %
02.05.2026 19:36 22,7 °C 21,7 °C 17,8 °C 70 % 1014,3 hPa 0,0 l/m² 0 min 25 W/m² 6,4 km/h (2 Bft) 95,74 %
02.05.2026 19:38 22,6 °C 21,1 °C 17,8 °C 70 % 1014,3 hPa 0,0 l/m² 0 min 27 W/m² 19,3 km/h (3 Bft) 95,65 %
02.05.2026 19:40 22,6 °C 21,1 °C 17,8 °C 69 % 1014,3 hPa 0,0 l/m² 0 min 28 W/m² 12,9 km/h (3 Bft) 93,62 %
02.05.2026 19:42 22,5 °C 21,1 °C 17,8 °C 69 % 1014,3 hPa 0,0 l/m² 0 min 27 W/m² 6,4 km/h (2 Bft) 93,62 %
02.05.2026 19:44 22,4 °C 21,1 °C 17,2 °C 69 % 1014,2 hPa 0,0 l/m² 0 min 24 W/m² 6,4 km/h (2 Bft) 94,34 %
02.05.2026 19:46 22,4 °C 21,1 °C 17,2 °C 69 % 1014,2 hPa 0,0 l/m² 0 min 19 W/m² 6,4 km/h (2 Bft) 93,62 %
02.05.2026 19:48 22,3 °C 21,1 °C 17,2 °C 70 % 1014,2 hPa 0,0 l/m² 0 min 18 W/m² 6,4 km/h (2 Bft) 93,62 %
02.05.2026 19:50 22,3 °C 21,1 °C 17,2 °C 70 % 1014,1 hPa 0,0 l/m² 0 min 19 W/m² 0,0 km/h (0 Bft) 94,00 %
02.05.2026 19:52 22,3 °C 20,6 °C 17,2 °C 71 % 1014,1 hPa 0,0 l/m² 0 min 19 W/m² 3,2 km/h (1 Bft) 94,74 %
02.05.2026 19:54 22,2 °C 20,6 °C 17,2 °C 71 % 1014,1 hPa 0,0 l/m² 0 min 18 W/m² 0,0 km/h (0 Bft) 95,92 %
02.05.2026 19:56 22,2 °C 20,6 °C 16,7 °C 71 % 1014,1 hPa 0,0 l/m² 0 min 17 W/m² 0,0 km/h (0 Bft) 96,00 %
02.05.2026 19:58 22,1 °C 20,6 °C 16,7 °C 71 % 1014,2 hPa 0,0 l/m² 0 min 15 W/m² 6,4 km/h (2 Bft) 93,62 %
02.05.2026 20:00 22,1 °C 20,6 °C 16,7 °C 71 % 1014,2 hPa 0,0 l/m² 0 min 14 W/m² 0,0 km/h (0 Bft) 93,62 %
02.05.2026 20:02 22,1 °C 20,6 °C 16,7 °C 70 % 1014,2 hPa 0,0 l/m² 0 min 14 W/m² 3,2 km/h (1 Bft) 94,00 %
02.05.2026 20:04 22,0 °C 20,6 °C 16,7 °C 70 % 1014,1 hPa 0,0 l/m² 0 min 14 W/m² 0,0 km/h (0 Bft) 93,62 %
02.05.2026 20:06 21,9 °C 20,0 °C 16,7 °C 70 % 1014,2 hPa 0,0 l/m² 0 min 11 W/m² 0,0 km/h (0 Bft) 97,83 %
02.05.2026 20:08 21,9 °C 20,0 °C 16,7 °C 71 % 1014,2 hPa 0,0 l/m² 0 min 7 W/m² 0,0 km/h (0 Bft) 97,44 %
02.05.2026 20:10 21,8 °C 20,0 °C 16,7 °C 71 % 1014,4 hPa 0,0 l/m² 0 min 2 W/m² 3,2 km/h (1 Bft) 97,96 %
02.05.2026 20:12 21,8 °C 20,0 °C 16,7 °C 71 % 1014,9 hPa 0,0 l/m² 0 min 0 W/m² 12,9 km/h (3 Bft) 98,00 %
02.05.2026 20:14 21,7 °C 20,0 °C 16,7 °C 70 % 1015,2 hPa 0,0 l/m² 0 min 0 W/m² 22,5 km/h (4 Bft) 97,87 %
02.05.2026 20:16 21,6 °C 20,0 °C 16,7 °C 71 % 1015,7 hPa 0,0 l/m² 0 min 0 W/m² 25,7 km/h (4 Bft) 96,00 %
02.05.2026 20:18 21,3 °C 17,8 °C 15,6 °C 70 % 1016,3 hPa 0,0 l/m² 0 min 0 W/m² 74,0 km/h (8 Bft) 97,37 %
02.05.2026 20:20 20,1 °C 13,9 °C 11,7 °C 72 % 1016,5 hPa 1,2 l/m² 0 min 0 W/m² 64,4 km/h (8 Bft) 95,74 %
02.05.2026 20:22 17,9 °C 12,2 °C 10,0 °C 76 % 1016,8 hPa 2,4 l/m² 0 min 0 W/m² 77,2 km/h (9 Bft) 96,00 %
02.05.2026 20:24 16,5 °C 12,2 °C 9,4 °C 80 % 1016,7 hPa 3,6 l/m² 0 min 0 W/m² 29,0 km/h (5 Bft) 100,00 %
02.05.2026 20:26 15,6 °C 12,2 °C 8,9 °C 84 % 1016,3 hPa 2,2 l/m² 0 min 0 W/m² 25,7 km/h (4 Bft) 95,65 %
02.05.2026 20:28 15,1 °C 12,2 °C 9,4 °C 85 % 1016,3 hPa 1,2 l/m² 0 min 0 W/m² 35,4 km/h (5 Bft) 100,00 %
02.05.2026 20:30 14,8 °C 12,8 °C 9,4 °C 87 % 1016,1 hPa 0,7 l/m² 0 min 0 W/m² 12,9 km/h (3 Bft) 97,87 %
02.05.2026 20:32 14,7 °C 12,8 °C 9,4 °C 89 % 1015,7 hPa 0,2 l/m² 0 min 0 W/m² 9,7 km/h (2 Bft) 100,00 %
02.05.2026 20:34 14,7 °C 12,8 °C 9,4 °C 89 % 1015,6 hPa 0,0 l/m² 0 min 0 W/m² 6,4 km/h (2 Bft) 100,00 %
02.05.2026 20:36 14,6 °C 12,8 °C 10,0 °C 90 % 1015,8 hPa 0,0 l/m² 0 min 0 W/m² 12,9 km/h (3 Bft) 97,37 %
02.05.2026 20:38 14,6 °C 13,3 °C 10,0 °C 91 % 1015,9 hPa 0,2 l/m² 0 min 0 W/m² 3,2 km/h (1 Bft) 100,00 %
02.05.2026 20:40 14,7 °C 13,3 °C 10,0 °C 91 % 1015,8 hPa 0,0 l/m² 0 min 0 W/m² 6,4 km/h (2 Bft) 100,00 %
02.05.2026 20:42 14,7 °C 13,3 °C 10,0 °C 92 % 1015,8 hPa 0,2 l/m² 0 min 0 W/m² 6,4 km/h (2 Bft) 100,00 %
02.05.2026 20:44 14,7 °C 13,3 °C 10,6 °C 92 % 1015,7 hPa 0,2 l/m² 0 min 0 W/m² 3,2 km/h (1 Bft) 100,00 %
02.05.2026 20:46 14,7 °C 13,9 °C 10,6 °C 92 % 1015,6 hPa 0,2 l/m² 0 min 0 W/m² 0,0 km/h (0 Bft) 100,00 %
02.05.2026 20:48 14,8 °C 13,9 °C 10,6 °C 93 % 1015,6 hPa 0,0 l/m² 0 min 0 W/m² 0,0 km/h (0 Bft) 97,87 %
02.05.2026 20:50 14,8 °C 13,9 °C 10,6 °C 93 % 1015,6 hPa 0,0 l/m² 0 min 0 W/m² 0,0 km/h (0 Bft) 100,00 %
02.05.2026 20:52 14,9 °C 13,9 °C 10,6 °C 93 % 1015,6 hPa 0,2 l/m² 0 min 0 W/m² 0,0 km/h (0 Bft) 100,00 %
02.05.2026 20:54 15,0 °C 13,9 °C 10,6 °C 94 % 1015,6 hPa 0,0 l/m² 0 min 0 W/m² 0,0 km/h (0 Bft) 100,00 %
02.05.2026 20:56 15,1 °C 13,9 °C 10,6 °C 94 % 1015,5 hPa 0,2 l/m² 0 min 0 W/m² 0,0 km/h (0 Bft) 100,00 %
02.05.2026 20:58 15,1 °C 13,9 °C 10,6 °C 94 % 1015,5 hPa 0,2 l/m² 0 min 0 W/m² 0,0 km/h (0 Bft) 100,00 %
02.05.2026 21:00 15,1 °C 13,9 °C 11,1 °C 94 % 1015,4 hPa 0,0 l/m² 0 min 0 W/m² 0,0 km/h (0 Bft) 98,00 %
02.05.2026 21:02 15,1 °C 13,9 °C 11,1 °C 94 % 1015,4 hPa 0,2 l/m² 0 min 0 W/m² 0,0 km/h (0 Bft) 97,87 %
02.05.2026 21:04 15,2 °C 13,9 °C 11,1 °C 95 % 1015,4 hPa 0,0 l/m² 0 min 0 W/m² 0,0 km/h (0 Bft) 100,00 %
02.05.2026 21:06 15,2 °C 14,4 °C 11,1 °C 95 % 1015,4 hPa 0,2 l/m² 0 min 0 W/m² 0,0 km/h (0 Bft) 100,00 %
02.05.2026 21:08 15,3 °C 14,4 °C 11,1 °C 95 % 1015,4 hPa 0,2 l/m² 0 min 0 W/m² 9,7 km/h (2 Bft) 97,87 %
02.05.2026 21:10 15,3 °C 14,4 °C 11,1 °C 95 % 1015,5 hPa 0,0 l/m² 0 min 0 W/m² 9,7 km/h (2 Bft) 97,83 %
02.05.2026 21:12 15,2 °C 13,9 °C 10,6 °C 95 % 1015,5 hPa 0,0 l/m² 0 min 0 W/m² 3,2 km/h (1 Bft) 97,62 %
02.05.2026 21:14 15,2 °C 13,9 °C 10,6 °C 95 % 1015,6 hPa 0,2 l/m² 0 min 0 W/m² 9,7 km/h (2 Bft) 97,83 %
02.05.2026 21:16 15,2 °C 13,9 °C 10,6 °C 95 % 1015,6 hPa 0,0 l/m² 0 min 0 W/m² 9,7 km/h (2 Bft) 97,87 %
02.05.2026 21:18 15,1 °C 13,9 °C 10,6 °C 95 % 1015,8 hPa 0,2 l/m² 0 min 0 W/m² 9,7 km/h (2 Bft) 97,87 %
02.05.2026 21:20 15,1 °C 13,9 °C 10,6 °C 95 % 1015,7 hPa 0,0 l/m² 0 min 0 W/m² 6,4 km/h (2 Bft) 97,87 %
02.05.2026 21:22 15,1 °C 13,9 °C 10,6 °C 96 % 1015,8 hPa 0,0 l/m² 0 min 0 W/m² 16,1 km/h (3 Bft) 98,00 %
02.05.2026 21:24 15,0 °C 13,9 °C 10,6 °C 96 % 1015,9 hPa 0,2 l/m² 0 min 0 W/m² 9,7 km/h (2 Bft) 97,87 %
02.05.2026 21:26 15,0 °C 13,9 °C 10,6 °C 96 % 1016,0 hPa 0,0 l/m² 0 min 0 W/m² 12,9 km/h (3 Bft) 97,87 %
02.05.2026 21:28 14,9 °C 13,9 °C 10,6 °C 96 % 1016,1 hPa 0,2 l/m² 0 min 0 W/m² 3,2 km/h (1 Bft) 97,14 %
02.05.2026 21:30 14,9 °C 13,9 °C 10,6 °C 96 % 1015,9 hPa 0,0 l/m² 0 min 0 W/m² 3,2 km/h (1 Bft) 98,28 %
02.05.2026 21:32 14,9 °C 13,9 °C 10,6 °C 96 % 1015,7 hPa 0,2 l/m² 0 min 0 W/m² 3,2 km/h (1 Bft) 97,87 %
02.05.2026 21:34 14,9 °C 13,9 °C 10,6 °C 96 % 1015,6 hPa 0,0 l/m² 0 min 0 W/m² 0,0 km/h (0 Bft) 95,74 %
02.05.2026 21:36 14,9 °C 13,9 °C 10,6 °C 96 % 1015,5 hPa 0,0 l/m² 0 min 0 W/m² 3,2 km/h (1 Bft) 97,14 %
02.05.2026 21:38 14,9 °C 13,9 °C 10,6 °C 96 % 1015,3 hPa 0,2 l/m² 0 min 0 W/m² 0,0 km/h (0 Bft) 98,11 %
02.05.2026 21:40 14,9 °C 13,9 °C 10,6 °C 96 % 1015,3 hPa 0,0 l/m² 0 min 0 W/m² 0,0 km/h (0 Bft) 100,00 %
02.05.2026 21:42 14,9 °C 13,9 °C 10,6 °C 96 % 1015,2 hPa 0,0 l/m² 0 min 0 W/m² 0,0 km/h (0 Bft) 97,87 %
02.05.2026 21:44 14,9 °C 13,9 °C 10,6 °C 96 % 1015,2 hPa 0,0 l/m² 0 min 0 W/m² 3,2 km/h (1 Bft) 98,11 %
02.05.2026 21:46 14,9 °C 13,9 °C 10,6 °C 96 % 1015,1 hPa 0,0 l/m² 0 min 0 W/m² 3,2 km/h (1 Bft) 100,00 %
02.05.2026 21:48 14,9 °C 13,9 °C 10,6 °C 97 % 1015,0 hPa 0,0 l/m² 0 min 0 W/m² 0,0 km/h (0 Bft) 100,00 %
02.05.2026 21:50 14,9 °C 13,9 °C 10,6 °C 97 % 1015,0 hPa 0,2 l/m² 0 min 0 W/m² 0,0 km/h (0 Bft) 100,00 %
02.05.2026 21:52 14,9 °C 13,9 °C 10,6 °C 97 % 1014,9 hPa 0,0 l/m² 0 min 0 W/m² 0,0 km/h (0 Bft) 100,00 %
02.05.2026 21:54 14,9 °C 13,9 °C 10,6 °C 97 % 1014,9 hPa 0,0 l/m² 0 min 0 W/m² 0,0 km/h (0 Bft) 97,87 %
02.05.2026 21:56 14,9 °C 13,9 °C 10,6 °C 97 % 1014,9 hPa 0,0 l/m² 0 min 0 W/m² 0,0 km/h (0 Bft) 100,00 %
02.05.2026 21:58 14,9 °C 13,9 °C 10,6 °C 97 % 1014,8 hPa 0,0 l/m² 0 min 0 W/m² 0,0 km/h (0 Bft) 100,00 %
02.05.2026 22:00 14,9 °C 13,9 °C 10,6 °C 97 % 1014,8 hPa 0,0 l/m² 0 min 0 W/m² 0,0 km/h (0 Bft) 98,08 %
02.05.2026 22:02 15,0 °C 13,9 °C 10,6 °C 97 % 1014,7 hPa 0,0 l/m² 0 min 0 W/m² 0,0 km/h (0 Bft) 97,87 %
02.05.2026 22:04 15,0 °C 13,9 °C 10,6 °C 97 % 1014,6 hPa 0,0 l/m² 0 min 0 W/m² 0,0 km/h (0 Bft) 97,14 %
02.05.2026 22:06 15,0 °C 13,9 °C 10,6 °C 97 % 1014,6 hPa 0,0 l/m² 0 min 0 W/m² 0,0 km/h (0 Bft) 98,39 %
02.05.2026 22:08 15,0 °C 13,9 °C 11,1 °C 97 % 1014,5 hPa 0,0 l/m² 0 min 0 W/m² 0,0 km/h (0 Bft) 97,37 %
02.05.2026 22:10 15,0 °C 14,4 °C 10,6 °C 97 % 1014,5 hPa 0,0 l/m² 0 min 0 W/m² 0,0 km/h (0 Bft) 97,87 %
02.05.2026 22:12 15,1 °C 14,4 °C 11,1 °C 97 % 1014,5 hPa 0,0 l/m² 0 min 0 W/m² 0,0 km/h (0 Bft) 97,87 %
02.05.2026 22:14 15,1 °C 14,4 °C 11,1 °C 97 % 1014,4 hPa 0,0 l/m² 0 min 0 W/m² 0,0 km/h (0 Bft) 95,74 %
02.05.2026 22:16 15,1 °C 13,9 °C 11,1 °C 97 % 1014,4 hPa 0,0 l/m² 0 min 0 W/m² 0,0 km/h (0 Bft) 95,65 %
02.05.2026 22:18 15,1 °C 13,9 °C 11,1 °C 97 % 1014,4 hPa 0,0 l/m² 0 min 0 W/m² 0,0 km/h (0 Bft) 97,87 %
02.05.2026 22:20 15,1 °C 14,4 °C 11,1 °C 97 % 1014,4 hPa 0,0 l/m² 0 min 0 W/m² 0,0 km/h (0 Bft) 97,87 %
02.05.2026 22:22 15,1 °C 14,4 °C 11,1 °C 97 % 1014,3 hPa 0,0 l/m² 0 min 0 W/m² 0,0 km/h (0 Bft) 97,87 %
02.05.2026 22:24 15,2 °C 14,4 °C 10,6 °C 97 % 1014,3 hPa 0,0 l/m² 0 min 0 W/m² 0,0 km/h (0 Bft) 97,87 %
02.05.2026 22:26 15,2 °C 14,4 °C 10,6 °C 97 % 1014,3 hPa 0,0 l/m² 0 min 0 W/m² 0,0 km/h (0 Bft) 97,87 %
02.05.2026 22:28 15,1 °C 14,4 °C 10,6 °C 97 % 1014,3 hPa 0,0 l/m² 0 min 0 W/m² 0,0 km/h (0 Bft) 97,87 %
02.05.2026 22:30 15,1 °C 14,4 °C 11,1 °C 97 % 1014,3 hPa 0,0 l/m² 0 min 0 W/m² 0,0 km/h (0 Bft) 97,87 %
02.05.2026 22:32 15,1 °C 14,4 °C 11,1 °C 97 % 1014,3 hPa 0,0 l/m² 0 min 0 W/m² 0,0 km/h (0 Bft) 97,83 %
02.05.2026 22:34 15,1 °C 14,4 °C 11,1 °C 97 % 1014,3 hPa 0,0 l/m² 0 min 0 W/m² 0,0 km/h (0 Bft) 97,87 %
02.05.2026 22:36 15,2 °C 14,4 °C 11,1 °C 97 % 1014,3 hPa 0,0 l/m² 0 min 0 W/m² 0,0 km/h (0 Bft) 98,00 %
02.05.2026 22:38 15,1 °C 14,4 °C 11,1 °C 97 % 1014,3 hPa 0,0 l/m² 0 min 0 W/m² 0,0 km/h (0 Bft) 95,74 %
02.05.2026 22:40 15,2 °C 14,4 °C 11,1 °C 98 % 1014,3 hPa 0,0 l/m² 0 min 0 W/m² 0,0 km/h (0 Bft) 95,74 %
02.05.2026 22:42 15,1 °C 14,4 °C 11,1 °C 98 % 1014,3 hPa 0,0 l/m² 0 min 0 W/m² 0,0 km/h (0 Bft) 93,62 %
02.05.2026 22:44 15,1 °C 14,4 °C 11,1 °C 98 % 1014,3 hPa 0,0 l/m² 0 min 0 W/m² 0,0 km/h (0 Bft) 97,87 %
02.05.2026 22:46 15,1 °C 14,4 °C 11,1 °C 98 % 1014,3 hPa 0,0 l/m² 0 min 0 W/m² 0,0 km/h (0 Bft) 95,74 %
02.05.2026 22:48 15,1 °C 14,4 °C 10,6 °C 98 % 1014,3 hPa 0,0 l/m² 0 min 0 W/m² 0,0 km/h (0 Bft) 97,96 %
02.05.2026 22:50 15,1 °C 14,4 °C 10,6 °C 98 % 1014,3 hPa 0,0 l/m² 0 min 0 W/m² 0,0 km/h (0 Bft) 97,37 %
02.05.2026 22:52 15,1 °C 14,4 °C 10,6 °C 98 % 1014,3 hPa 0,0 l/m² 0 min 0 W/m² 0,0 km/h (0 Bft) 97,87 %
02.05.2026 22:54 15,0 °C 14,4 °C 10,6 °C 98 % 1014,3 hPa 0,0 l/m² 0 min 0 W/m² 9,7 km/h (2 Bft) 98,11 %
02.05.2026 22:56 14,9 °C 13,9 °C 10,6 °C 98 % 1014,3 hPa 0,0 l/m² 0 min 0 W/m² 6,4 km/h (2 Bft) 95,74 %
02.05.2026 22:58 14,9 °C 13,9 °C 10,6 °C 98 % 1014,3 hPa 0,0 l/m² 0 min 0 W/m² 9,7 km/h (2 Bft) 94,00 %
02.05.2026 23:00 14,8 °C 13,9 °C 10,6 °C 97 % 1014,3 hPa 0,0 l/m² 0 min 0 W/m² 3,2 km/h (1 Bft) 95,74 %
02.05.2026 23:02 14,8 °C 13,9 °C 10,6 °C 97 % 1014,3 hPa 0,0 l/m² 0 min 0 W/m² 6,4 km/h (2 Bft) 94,74 %
02.05.2026 23:04 14,8 °C 13,9 °C 10,6 °C 98 % 1014,2 hPa 0,0 l/m² 0 min 0 W/m² 6,4 km/h (2 Bft) 97,14 %
02.05.2026 23:06 14,8 °C 13,9 °C 10,6 °C 98 % 1014,3 hPa 0,0 l/m² 0 min 0 W/m² 6,4 km/h (2 Bft) 95,08 %
02.05.2026 23:08 14,7 °C 13,9 °C 10,6 °C 98 % 1014,3 hPa 0,0 l/m² 0 min 0 W/m² 3,2 km/h (1 Bft) 94,00 %
02.05.2026 23:10 14,7 °C 13,9 °C 10,6 °C 98 % 1014,3 hPa 0,0 l/m² 0 min 0 W/m² 6,4 km/h (2 Bft) 97,56 %
02.05.2026 23:12 14,7 °C 13,9 °C 10,6 °C 98 % 1014,2 hPa 0,0 l/m² 0 min 0 W/m² 12,9 km/h (3 Bft) 94,00 %
02.05.2026 23:14 14,6 °C 13,9 °C 10,6 °C 98 % 1014,2 hPa 0,0 l/m² 0 min 0 W/m² 3,2 km/h (1 Bft) 95,74 %
02.05.2026 23:16 14,6 °C 13,9 °C 10,6 °C 98 % 1014,3 hPa 0,0 l/m² 0 min 0 W/m² 3,2 km/h (1 Bft) 95,74 %
02.05.2026 23:18 14,6 °C 13,9 °C 10,6 °C 97 % 1014,3 hPa 0,0 l/m² 0 min 0 W/m² 3,2 km/h (1 Bft) 94,00 %
02.05.2026 23:20 14,6 °C 13,9 °C 10,6 °C 97 % 1014,2 hPa 0,0 l/m² 0 min 0 W/m² 6,4 km/h (2 Bft) 95,65 %
02.05.2026 23:22 14,6 °C 13,9 °C 10,6 °C 98 % 1014,1 hPa 0,0 l/m² 0 min 0 W/m² 3,2 km/h (1 Bft) 95,74 %
02.05.2026 23:24 14,5 °C 13,9 °C 10,6 °C 98 % 1014,1 hPa 0,0 l/m² 0 min 0 W/m² 3,2 km/h (1 Bft) 95,74 %
02.05.2026 23:26 14,5 °C 13,9 °C 10,6 °C 98 % 1014,1 hPa 0,0 l/m² 0 min 0 W/m² 3,2 km/h (1 Bft) 94,74 %
02.05.2026 23:28 14,5 °C 13,9 °C 10,6 °C 98 % 1014,1 hPa 0,0 l/m² 0 min 0 W/m² 3,2 km/h (1 Bft) 100,00 %
02.05.2026 23:30 14,5 °C 13,9 °C 10,6 °C 98 % 1014,1 hPa 0,0 l/m² 0 min 0 W/m² 3,2 km/h (1 Bft) 100,00 %
02.05.2026 23:32 14,5 °C 13,9 °C 10,6 °C 98 % 1014,1 hPa 0,0 l/m² 0 min 0 W/m² 3,2 km/h (1 Bft) 100,00 %
02.05.2026 23:34 14,5 °C 13,9 °C 10,6 °C 98 % 1014,1 hPa 0,0 l/m² 0 min 0 W/m² 3,2 km/h (1 Bft) 98,00 %
02.05.2026 23:36 14,5 °C 13,9 °C 10,0 °C 98 % 1014,1 hPa 0,0 l/m² 0 min 0 W/m² 3,2 km/h (1 Bft) 97,83 %
02.05.2026 23:38 14,5 °C 13,9 °C 10,0 °C 98 % 1014,1 hPa 0,0 l/m² 0 min 0 W/m² 3,2 km/h (1 Bft) 100,00 %
02.05.2026 23:40 14,5 °C 13,9 °C 10,6 °C 98 % 1014,1 hPa 0,0 l/m² 0 min 0 W/m² 0,0 km/h (0 Bft) 100,00 %
02.05.2026 23:42 14,5 °C 13,9 °C 10,6 °C 98 % 1014,1 hPa 0,0 l/m² 0 min 0 W/m² 0,0 km/h (0 Bft) 100,00 %
02.05.2026 23:44 14,4 °C 13,9 °C 10,6 °C 98 % 1014,2 hPa 0,0 l/m² 0 min 0 W/m² 0,0 km/h (0 Bft) 98,00 %
02.05.2026 23:46 14,4 °C 13,9 °C 10,6 °C 98 % 1014,2 hPa 0,0 l/m² 0 min 0 W/m² 0,0 km/h (0 Bft) 100,00 %
02.05.2026 23:48 14,4 °C 13,9 °C 10,6 °C 98 % 1014,2 hPa 0,0 l/m² 0 min 0 W/m² 0,0 km/h (0 Bft) 100,00 %
02.05.2026 23:50 14,4 °C 13,9 °C 10,6 °C 98 % 1014,2 hPa 0,0 l/m² 0 min 0 W/m² 0,0 km/h (0 Bft) 100,00 %
02.05.2026 23:52 14,4 °C 13,9 °C 10,6 °C 98 % 1014,2 hPa 0,0 l/m² 0 min 0 W/m² 0,0 km/h (0 Bft) 100,00 %
02.05.2026 23:54 14,3 °C 13,9 °C 10,6 °C 98 % 1014,2 hPa 0,0 l/m² 0 min 0 W/m² 0,0 km/h (0 Bft) 100,00 %
02.05.2026 23:56 14,3 °C 13,9 °C 10,6 °C 98 % 1014,2 hPa 0,0 l/m² 0 min 0 W/m² 0,0 km/h (0 Bft) 100,00 %
02.05.2026 23:58 14,3 °C 13,9 °C 10,6 °C 98 % 1014,2 hPa 0,0 l/m² 0 min 0 W/m² 0,0 km/h (0 Bft) 97,22 %
_ Min-Zeit 06:18 05:24 05:42 14:16 19:16 - - - 02:34 04:04
Minimum _ 11,3 °C 10,6 °C 7,2 °C 51 % 1014,1 hPa - - - 0,0 km/h (0 Bft) 89,36 %
_ Max-Zeit 14:28 13:26 13:20 22:40 00:02 20:24 08:24 13:20 20:22 00:00
Maximum _ 26,7 °C 32,8 °C 29,4 °C 98 % 1021,9 hPa 3,6 l/m² 2 min 871 W/m² 77,2 km/h
SO (9 Bft)
100,00 %
Durchschnitt _ 18,0 °C 18,6 °C 14,2 °C 69 % 1018,2 hPa #16,1 l/m² #6:50 h 333 W/m² 9,8 km/h (2 Bft) 97,59 %
© 2026 W. Hausmann